<?xml version='1.0' encoding='UTF-8'?><gpx version="1.1" creator="JPX - https://github.com/jenetics/jpx" xmlns="http://www.topografix.com/GPX/1/1"><trk><trkseg><trkpt lat="45.848839977459534" lon="10.174396194711699"><ele>510.0</ele><time>2026-04-21T10:40:14Z</time></trkpt><trkpt lat="45.84893462676716" lon="10.174365729427869"><ele>510.0</ele><time>2026-04-21T10:40:54.999Z</time></trkpt><trkpt lat="45.84899767742215" lon="10.17434113803409"><ele>510.0</ele><time>2026-04-21T10:40:55.999Z</time></trkpt><trkpt lat="45.84896933855857" lon="10.174447367606364"><ele>510.0</ele><time>2026-04-21T10:40:59.999Z</time></trkpt><trkpt lat="45.84888278275612" lon="10.174492634247242"><ele>510.0</ele><time>2026-04-21T10:41:01.999Z</time></trkpt><trkpt lat="45.848827329128845" lon="10.174635409428541"><ele>510.0</ele><time>2026-04-21T10:41:03.999Z</time></trkpt><trkpt lat="45.84879730138793" lon="10.174752119446046"><ele>513.0</ele><time>2026-04-21T10:41:04.999Z</time></trkpt><trkpt lat="45.848771888403206" lon="10.174874858848824"><ele>516.0</ele><time>2026-04-21T10:41:05.999Z</time></trkpt><trkpt lat="45.848783648643774" lon="10.17501543695341"><ele>519.0</ele><time>2026-04-21T10:41:06.999Z</time></trkpt><trkpt lat="45.84883093471433" lon="10.175140336986539"><ele>522.0</ele><time>2026-04-21T10:41:07.999Z</time></trkpt><trkpt lat="45.848914052281074" lon="10.175271695961078"><ele>525.0</ele><time>2026-04-21T10:41:08.999Z</time></trkpt><trkpt lat="45.84900609958582" lon="10.175378868162843"><ele>525.0</ele><time>2026-04-21T10:41:09.999Z</time></trkpt><trkpt lat="45.84908152920173" lon="10.175481728960156"><ele>525.0</ele><time>2026-04-21T10:41:10.999Z</time></trkpt><trkpt lat="45.84912104391275" lon="10.17560040574074"><ele>525.0</ele><time>2026-04-21T10:41:11.999Z</time></trkpt><trkpt lat="45.84909472484794" lon="10.175728054204923"><ele>525.0</ele><time>2026-04-21T10:41:12.999Z</time></trkpt><trkpt lat="45.84907623491793" lon="10.175846343681984"><ele>525.0</ele><time>2026-04-21T10:41:13.999Z</time></trkpt><trkpt lat="45.84902757777388" lon="10.175938412349081"><ele>526.6</ele><time>2026-04-21T10:41:15.999Z</time></trkpt><trkpt lat="45.84893760818951" lon="10.175916268509015"><ele>528.2</ele><time>2026-04-21T10:41:17.999Z</time></trkpt><trkpt lat="45.84887704206456" lon="10.176068255260327"><ele>529.8</ele><time>2026-04-21T10:41:19.999Z</time></trkpt><trkpt lat="45.84880399524503" lon="10.176057105407496"><ele>531.4</ele><time>2026-04-21T10:41:21.999Z</time></trkpt><trkpt lat="45.84882282032769" lon="10.17591403023571"><ele>533.0</ele><time>2026-04-21T10:41:22.998Z</time></trkpt><trkpt lat="45.84881213647811" lon="10.17576988286456"><ele>533.0</ele><time>2026-04-21T10:41:23.998Z</time></trkpt><trkpt lat="45.84880086880878" lon="10.175667858144447"><ele>533.0</ele><time>2026-04-21T10:41:24.998Z</time></trkpt><trkpt lat="45.848731257577526" lon="10.175610192408744"><ele>533.0</ele><time>2026-04-21T10:41:26.998Z</time></trkpt><trkpt lat="45.84864947947836" lon="10.175680439717196"><ele>533.0</ele><time>2026-04-21T10:41:28.998Z</time></trkpt><trkpt lat="45.848595097809955" lon="10.17579662629479"><ele>533.0</ele><time>2026-04-21T10:41:30.998Z</time></trkpt><trkpt lat="45.84851141462067" lon="10.175803262509797"><ele>533.0</ele><time>2026-04-21T10:41:31.998Z</time></trkpt><trkpt lat="45.84853710457391" lon="10.175987647134274"><ele>533.0</ele><time>2026-04-21T10:41:32.998Z</time></trkpt><trkpt lat="45.848477914790394" lon="10.176033891899197"><ele>533.0</ele><time>2026-04-21T10:41:35.998Z</time></trkpt><trkpt lat="45.84833918416663" lon="10.175945682135305"><ele>533.0</ele><time>2026-04-21T10:41:37.998Z</time></trkpt><trkpt lat="45.848277570279" lon="10.175889195970232"><ele>533.0</ele><time>2026-04-21T10:41:39.998Z</time></trkpt><trkpt lat="45.84823235353941" lon="10.175757293200359"><ele>533.0</ele><time>2026-04-21T10:41:40.998Z</time></trkpt><trkpt lat="45.84820927177893" lon="10.17560149686545"><ele>528.8333333333333</ele><time>2026-04-21T10:41:41.999Z</time></trkpt><trkpt lat="45.84818697527366" lon="10.175469917217494"><ele>524.6666666666666</ele><time>2026-04-21T10:41:43.999Z</time></trkpt><trkpt lat="45.848171736588085" lon="10.175376960795411"><ele>520.5</ele><time>2026-04-21T10:41:44.999Z</time></trkpt><trkpt lat="45.84814220521242" lon="10.175295555275497"><ele>516.3333333333334</ele><time>2026-04-21T10:41:45.999Z</time></trkpt><trkpt lat="45.84810363430283" lon="10.175188630549806"><ele>512.1666666666667</ele><time>2026-04-21T10:41:47.999Z</time></trkpt><trkpt lat="45.848014487533625" lon="10.175089998069447"><ele>508.0</ele><time>2026-04-21T10:41:49.999Z</time></trkpt><trkpt lat="45.84793153069627" lon="10.174961962743515"><ele>508.00000000000006</ele><time>2026-04-21T10:41:51.999Z</time></trkpt><trkpt lat="45.84786962865419" lon="10.174897513434349"><ele>508.0</ele><time>2026-04-21T10:41:52.999Z</time></trkpt><trkpt lat="45.84779623182184" lon="10.174784677276092"><ele>508.0</ele><time>2026-04-21T10:41:54.999Z</time></trkpt><trkpt lat="45.84774294506499" lon="10.174721873944867"><ele>508.0</ele><time>2026-04-21T10:41:55.999Z</time></trkpt><trkpt lat="45.84769515855365" lon="10.174630346223266"><ele>508.00000000000006</ele><time>2026-04-21T10:41:56.999Z</time></trkpt><trkpt lat="45.84766934114197" lon="10.174544837965714"><ele>508.0</ele><time>2026-04-21T10:41:57.999Z</time></trkpt><trkpt lat="45.84763860714778" lon="10.174439853541967"><ele>500.59999999999997</ele><time>2026-04-21T10:41:58.999Z</time></trkpt><trkpt lat="45.847599676594015" lon="10.174342527804818"><ele>493.19999999999993</ele><time>2026-04-21T10:41:59.999Z</time></trkpt><trkpt lat="45.84756239358914" lon="10.174256709564622"><ele>485.8</ele><time>2026-04-21T10:42:00.999Z</time></trkpt><trkpt lat="45.84751562181903" lon="10.174087604012033"><ele>478.4</ele><time>2026-04-21T10:42:02.999Z</time></trkpt><trkpt lat="45.84750038765182" lon="10.173941753281174"><ele>471.0</ele><time>2026-04-21T10:42:04.999Z</time></trkpt><trkpt lat="45.84749721439882" lon="10.17379196915441"><ele>469.20000000000005</ele><time>2026-04-21T10:42:06.999Z</time></trkpt><trkpt lat="45.8474560618077" lon="10.173652624259601"><ele>467.40000000000003</ele><time>2026-04-21T10:42:08.999Z</time></trkpt><trkpt lat="45.847419257227415" lon="10.173548307459756"><ele>465.6</ele><time>2026-04-21T10:42:10.999Z</time></trkpt><trkpt lat="45.84739463875807" lon="10.173430659467796"><ele>463.8</ele><time>2026-04-21T10:42:12.999Z</time></trkpt><trkpt lat="45.847439939207646" lon="10.17328227155353"><ele>462.0</ele><time>2026-04-21T10:42:14.999Z</time></trkpt><trkpt lat="45.84749016012186" lon="10.173197741813535"><ele>458.6</ele><time>2026-04-21T10:42:15.999Z</time></trkpt><trkpt lat="45.84756648619576" lon="10.173074277727295"><ele>455.20000000000005</ele><time>2026-04-21T10:42:16.999Z</time></trkpt><trkpt lat="45.847642735275755" lon="10.172938512473758"><ele>451.8</ele><time>2026-04-21T10:42:17.999Z</time></trkpt><trkpt lat="45.84767689880531" lon="10.17283711559455"><ele>448.4</ele><time>2026-04-21T10:42:18.999Z</time></trkpt><trkpt lat="45.84770918678893" lon="10.172704308116954"><ele>445.0</ele><time>2026-04-21T10:42:20.999Z</time></trkpt><trkpt lat="45.84765262593133" lon="10.17261920476838"><ele>445.00000000000006</ele><time>2026-04-21T10:42:23.999Z</time></trkpt><trkpt lat="45.847554306128146" lon="10.17265370633024"><ele>445.0</ele><time>2026-04-21T10:42:25.999Z</time></trkpt><trkpt lat="45.84748986670132" lon="10.172648828631006"><ele>445.0</ele><time>2026-04-21T10:42:26.999Z</time></trkpt><trkpt lat="45.84741669612977" lon="10.172649462449563"><ele>445.0</ele><time>2026-04-21T10:42:27.999Z</time></trkpt><trkpt lat="45.84734885334647" lon="10.172643747225882"><ele>445.00000000000006</ele><time>2026-04-21T10:42:28.999Z</time></trkpt><trkpt lat="45.84728651220328" lon="10.172628558503856"><ele>445.0</ele><time>2026-04-21T10:42:29.999Z</time></trkpt><trkpt lat="45.84716979458576" lon="10.172640855355947"><ele>445.00000000000006</ele><time>2026-04-21T10:42:31.999Z</time></trkpt><trkpt lat="45.84710836118308" lon="10.172669370626474"><ele>445.0</ele><time>2026-04-21T10:42:32.999Z</time></trkpt><trkpt lat="45.847003915454614" lon="10.17272997705107"><ele>445.0</ele><time>2026-04-21T10:42:34.999Z</time></trkpt><trkpt lat="45.84692441227982" lon="10.17277003268987"><ele>445.0</ele><time>2026-04-21T10:42:36.999Z</time></trkpt><trkpt lat="45.84685709130995" lon="10.172801236810901"><ele>445.00000000000006</ele><time>2026-04-21T10:42:38.999Z</time></trkpt><trkpt lat="45.84679376217344" lon="10.172873162606018"><ele>445.0</ele><time>2026-04-21T10:42:40.999Z</time></trkpt><trkpt lat="45.8467141131703" lon="10.172871828690718"><ele>440.83333333333337</ele><time>2026-04-21T10:42:43.999Z</time></trkpt><trkpt lat="45.84667165328837" lon="10.17275104542241"><ele>436.6666666666667</ele><time>2026-04-21T10:42:46.999Z</time></trkpt><trkpt lat="45.84664360406887" lon="10.17261133254333"><ele>432.5</ele><time>2026-04-21T10:42:48.999Z</time></trkpt><trkpt lat="45.84664007916507" lon="10.172511180165934"><ele>428.33333333333337</ele><time>2026-04-21T10:42:50.999Z</time></trkpt><trkpt lat="45.846645833769415" lon="10.172403369616323"><ele>424.1666666666667</ele><time>2026-04-21T10:42:53.999Z</time></trkpt><trkpt lat="45.84660025585407" lon="10.172304747262526"><ele>420.0</ele><time>2026-04-21T10:42:55.999Z</time></trkpt><trkpt lat="45.846562110299274" lon="10.172179783364804"><ele>417.8333333333333</ele><time>2026-04-21T10:42:57.999Z</time></trkpt><trkpt lat="45.84650884283539" lon="10.172083589866757"><ele>415.66666666666663</ele><time>2026-04-21T10:42:59.999Z</time></trkpt><trkpt lat="45.84647102177442" lon="10.171934966133739"><ele>413.5</ele><time>2026-04-21T10:43:01.999Z</time></trkpt><trkpt lat="45.84644034991513" lon="10.171817821328142"><ele>411.3333333333333</ele><time>2026-04-21T10:43:03.999Z</time></trkpt><trkpt lat="45.84641514335445" lon="10.17170565750412"><ele>409.16666666666663</ele><time>2026-04-21T10:43:05.999Z</time></trkpt><trkpt lat="45.84642525765386" lon="10.171594920431017"><ele>407.0</ele><time>2026-04-21T10:43:07.999Z</time></trkpt><trkpt lat="45.84647759850855" lon="10.171518594753403"><ele>400.66666666666663</ele><time>2026-04-21T10:43:10.999Z</time></trkpt><trkpt lat="45.84647470093443" lon="10.171378487177282"><ele>394.3333333333333</ele><time>2026-04-21T10:43:14.998Z</time></trkpt><trkpt lat="45.846515033492366" lon="10.171287645594445"><ele>388.0</ele><time>2026-04-21T10:43:16.998Z</time></trkpt><trkpt lat="45.84654517273696" lon="10.171191413899953"><ele>381.66666666666663</ele><time>2026-04-21T10:43:18.998Z</time></trkpt><trkpt lat="45.84658576865809" lon="10.17106615303524"><ele>375.3333333333333</ele><time>2026-04-21T10:43:20.998Z</time></trkpt><trkpt lat="45.84662878766826" lon="10.170993852267994"><ele>369.0</ele><time>2026-04-21T10:43:22.998Z</time></trkpt><trkpt lat="45.84668004716835" lon="10.170923958483392"><ele>369.0</ele><time>2026-04-21T10:43:25.998Z</time></trkpt><trkpt lat="45.84672474826529" lon="10.170794710478424"><ele>369.0</ele><time>2026-04-21T10:43:28.998Z</time></trkpt><trkpt lat="45.84686055591836" lon="10.170553291123305"><ele>369.0</ele><time>2026-04-21T10:43:30.998Z</time></trkpt><trkpt lat="45.84691871255981" lon="10.17043764099107"><ele>369.0</ele><time>2026-04-21T10:43:31.998Z</time></trkpt><trkpt lat="45.84697485047459" lon="10.170329316393113"><ele>369.0</ele><time>2026-04-21T10:43:33.998Z</time></trkpt><trkpt lat="45.847052438433664" lon="10.170274990364387"><ele>369.0</ele><time>2026-04-21T10:43:35.998Z</time></trkpt><trkpt lat="45.84713707101112" lon="10.170220371970382"><ele>369.0</ele><time>2026-04-21T10:43:37.998Z</time></trkpt><trkpt lat="45.84723678475074" lon="10.170168394746526"><ele>369.0</ele><time>2026-04-21T10:43:39.998Z</time></trkpt><trkpt lat="45.84732781117148" lon="10.170196587741433"><ele>369.0</ele><time>2026-04-21T10:43:41.998Z</time></trkpt><trkpt lat="45.84741443030166" lon="10.170245245101926"><ele>369.0</ele><time>2026-04-21T10:43:43.998Z</time></trkpt><trkpt lat="45.84750292912754" lon="10.17028292699736"><ele>369.0</ele><time>2026-04-21T10:43:45.998Z</time></trkpt><trkpt lat="45.847569746875" lon="10.17027293946754"><ele>369.0</ele><time>2026-04-21T10:43:48Z</time></trkpt><trkpt lat="45.84764719894105" lon="10.170267965416409"><ele>369.0</ele><time>2026-04-21T10:43:51Z</time></trkpt><trkpt lat="45.8477132608298" lon="10.17027712328606"><ele>369.0</ele><time>2026-04-21T10:43:54Z</time></trkpt><trkpt lat="45.84776999035567" lon="10.170319394324974"><ele>369.0</ele><time>2026-04-21T10:43:56Z</time></trkpt><trkpt lat="45.8478418611364" lon="10.170370288151366"><ele>369.0</ele><time>2026-04-21T10:44:00Z</time></trkpt><trkpt lat="45.84791003918224" lon="10.170354004691585"><ele>365.0</ele><time>2026-04-21T10:44:03Z</time></trkpt><trkpt lat="45.8479827671396" lon="10.170386432000454"><ele>361.0</ele><time>2026-04-21T10:44:05Z</time></trkpt><trkpt lat="45.848046996718026" lon="10.170419351883039"><ele>357.0</ele><time>2026-04-21T10:44:07Z</time></trkpt><trkpt lat="45.848104394187075" lon="10.170457786375255"><ele>353.0</ele><time>2026-04-21T10:44:09Z</time></trkpt><trkpt lat="45.84819825224875" lon="10.170452017307715"><ele>349.0</ele><time>2026-04-21T10:44:11Z</time></trkpt><trkpt lat="45.848285746943866" lon="10.170471219299236"><ele>345.0</ele><time>2026-04-21T10:44:13.999Z</time></trkpt><trkpt lat="45.84836474453777" lon="10.170474446783087"><ele>345.0</ele><time>2026-04-21T10:44:16.999Z</time></trkpt><trkpt lat="45.84845738158989" lon="10.17050359045698"><ele>345.0</ele><time>2026-04-21T10:44:19.999Z</time></trkpt><trkpt lat="45.84853430634285" lon="10.170505199279962"><ele>345.0</ele><time>2026-04-21T10:44:21.999Z</time></trkpt><trkpt lat="45.848632617285084" lon="10.170507705972982"><ele>345.0</ele><time>2026-04-21T10:44:24.999Z</time></trkpt><trkpt lat="45.8487023803736" lon="10.170497143752963"><ele>345.0</ele><time>2026-04-21T10:44:26.999Z</time></trkpt><trkpt lat="45.84877865257322" lon="10.170516298354078"><ele>345.0</ele><time>2026-04-21T10:44:29.999Z</time></trkpt><trkpt lat="45.84885821077537" lon="10.17050422675546"><ele>342.0</ele><time>2026-04-21T10:44:31.999Z</time></trkpt><trkpt lat="45.84892360564772" lon="10.170498154598791"><ele>339.0</ele><time>2026-04-21T10:44:33.999Z</time></trkpt><trkpt lat="45.848992176438976" lon="10.170463210967597"><ele>336.0</ele><time>2026-04-21T10:44:37.999Z</time></trkpt><trkpt lat="45.84897692293626" lon="10.170365425645478"><ele>333.0</ele><time>2026-04-21T10:44:40.999Z</time></trkpt><trkpt lat="45.848936539709115" lon="10.170248755243135"><ele>330.0</ele><time>2026-04-21T10:44:42.999Z</time></trkpt><trkpt lat="45.848889415273575" lon="10.170115770619518"><ele>327.0</ele><time>2026-04-21T10:44:44.999Z</time></trkpt><trkpt lat="45.84884252227846" lon="10.169967778276991"><ele>322.6</ele><time>2026-04-21T10:44:46.999Z</time></trkpt><trkpt lat="45.848807064507234" lon="10.169809129905142"><ele>318.20000000000005</ele><time>2026-04-21T10:44:48.999Z</time></trkpt><trkpt lat="45.84875357743155" lon="10.169670846199878"><ele>313.8</ele><time>2026-04-21T10:44:50.999Z</time></trkpt><trkpt lat="45.84868370951971" lon="10.169569607315976"><ele>309.4</ele><time>2026-04-21T10:44:52.999Z</time></trkpt><trkpt lat="45.84859010767426" lon="10.169512177018374"><ele>305.0</ele><time>2026-04-21T10:44:54.999Z</time></trkpt><trkpt lat="45.84850262419987" lon="10.16944151282756"><ele>304.1666666666667</ele><time>2026-04-21T10:44:56.999Z</time></trkpt><trkpt lat="45.848411489462286" lon="10.169379747471128"><ele>303.33333333333337</ele><time>2026-04-21T10:44:58.999Z</time></trkpt><trkpt lat="45.84833428018481" lon="10.16931345954983"><ele>302.5</ele><time>2026-04-21T10:45:00.999Z</time></trkpt><trkpt lat="45.84827939028473" lon="10.169252610427835"><ele>301.6666666666667</ele><time>2026-04-21T10:45:02.999Z</time></trkpt><trkpt lat="45.84821190056284" lon="10.169157266802351"><ele>300.8333333333333</ele><time>2026-04-21T10:45:05.999Z</time></trkpt><trkpt lat="45.848153821518096" lon="10.169072992100954"><ele>300.0</ele><time>2026-04-21T10:45:07.999Z</time></trkpt><trkpt lat="45.84810008981004" lon="10.168980759913028"><ele>300.0</ele><time>2026-04-21T10:45:09.999Z</time></trkpt><trkpt lat="45.848064232139436" lon="10.168869386800232"><ele>300.0</ele><time>2026-04-21T10:45:11.999Z</time></trkpt><trkpt lat="45.8481333045956" lon="10.168795140445928"><ele>300.0</ele><time>2026-04-21T10:45:13.999Z</time></trkpt><trkpt lat="45.8482067372108" lon="10.168805041631224"><ele>300.0</ele><time>2026-04-21T10:45:14.999Z</time></trkpt><trkpt lat="45.84829652771686" lon="10.168831803117925"><ele>300.0</ele><time>2026-04-21T10:45:15.999Z</time></trkpt><trkpt lat="45.84837655054188" lon="10.16881930384278"><ele>300.0</ele><time>2026-04-21T10:45:17.999Z</time></trkpt><trkpt lat="45.84833099928623" lon="10.168743834073618"><ele>300.0</ele><time>2026-04-21T10:45:19.999Z</time></trkpt><trkpt lat="45.8482602979432" lon="10.16866239049105"><ele>300.0</ele><time>2026-04-21T10:45:20.999Z</time></trkpt><trkpt lat="45.84819816383731" lon="10.168545572748593"><ele>300.0</ele><time>2026-04-21T10:45:21.999Z</time></trkpt><trkpt lat="45.84816833783874" lon="10.168363914411003"><ele>300.0</ele><time>2026-04-21T10:45:22.999Z</time></trkpt><trkpt lat="45.84815721296784" lon="10.168220227180582"><ele>300.0</ele><time>2026-04-21T10:45:23.999Z</time></trkpt><trkpt lat="45.84809798704976" lon="10.168143048642843"><ele>296.8</ele><time>2026-04-21T10:45:24.999Z</time></trkpt><trkpt lat="45.8480083520098" lon="10.168092999254462"><ele>293.6</ele><time>2026-04-21T10:45:25.999Z</time></trkpt><trkpt lat="45.847910954598944" lon="10.168044055291633"><ele>290.4</ele><time>2026-04-21T10:45:26.999Z</time></trkpt><trkpt lat="45.847824142625115" lon="10.167951673482033"><ele>287.2</ele><time>2026-04-21T10:45:27.999Z</time></trkpt><trkpt lat="45.84775409320267" lon="10.167840852983566"><ele>284.0</ele><time>2026-04-21T10:45:28.999Z</time></trkpt><trkpt lat="45.84771121126817" lon="10.167711686467223"><ele>284.0</ele><time>2026-04-21T10:45:29.998Z</time></trkpt><trkpt lat="45.84766221278972" lon="10.167583598940839"><ele>284.0</ele><time>2026-04-21T10:45:30.998Z</time></trkpt><trkpt lat="45.847613048476184" lon="10.167463222719483"><ele>284.0</ele><time>2026-04-21T10:45:31.998Z</time></trkpt><trkpt lat="45.84755253985187" lon="10.167362160079879"><ele>284.0</ele><time>2026-04-21T10:45:32.998Z</time></trkpt><trkpt lat="45.84747865795113" lon="10.167301702229771"><ele>284.0</ele><time>2026-04-21T10:45:33.998Z</time></trkpt><trkpt lat="45.847411657696426" lon="10.167242859034792"><ele>285.2</ele><time>2026-04-21T10:45:34.998Z</time></trkpt><trkpt lat="45.84737242586033" lon="10.1671698059208"><ele>286.4</ele><time>2026-04-21T10:45:35.998Z</time></trkpt><trkpt lat="45.84738318796267" lon="10.166988152145032"><ele>287.6</ele><time>2026-04-21T10:45:37.998Z</time></trkpt><trkpt lat="45.84742543993635" lon="10.166841406745315"><ele>288.8</ele><time>2026-04-21T10:45:39.998Z</time></trkpt><trkpt lat="45.84737002592262" lon="10.166755195720622"><ele>290.0</ele><time>2026-04-21T10:45:41.998Z</time></trkpt><trkpt lat="45.84734377978315" lon="10.166482853198714"><ele>290.0</ele><time>2026-04-21T10:45:43.998Z</time></trkpt><trkpt lat="45.84727861664562" lon="10.166393923347988"><ele>290.0</ele><time>2026-04-21T10:45:44.998Z</time></trkpt><trkpt lat="45.84724286910242" lon="10.166317322959872"><ele>290.0</ele><time>2026-04-21T10:45:45.998Z</time></trkpt><trkpt lat="45.847228317361875" lon="10.166206916032483"><ele>290.0</ele><time>2026-04-21T10:45:47.998Z</time></trkpt><trkpt lat="45.847153260164525" lon="10.166112867327678"><ele>290.0</ele><time>2026-04-21T10:45:49.998Z</time></trkpt><trkpt lat="45.84714484738435" lon="10.165999549465583"><ele>290.0</ele><time>2026-04-21T10:45:50.998Z</time></trkpt><trkpt lat="45.847144907239006" lon="10.165820325797656"><ele>288.5</ele><time>2026-04-21T10:45:51.998Z</time></trkpt><trkpt lat="45.84715626293349" lon="10.165617071517426"><ele>287.0</ele><time>2026-04-21T10:45:53Z</time></trkpt><trkpt lat="45.84712824898688" lon="10.165482426699139"><ele>285.5</ele><time>2026-04-21T10:45:54Z</time></trkpt><trkpt lat="45.84709740232877" lon="10.16531175179459"><ele>284.0</ele><time>2026-04-21T10:45:55Z</time></trkpt><trkpt lat="45.84707295119433" lon="10.165153391157599"><ele>284.0</ele><time>2026-04-21T10:45:56Z</time></trkpt><trkpt lat="45.84705382051011" lon="10.165027571903689"><ele>284.0</ele><time>2026-04-21T10:45:57Z</time></trkpt><trkpt lat="45.84704075499077" lon="10.164911607201448"><ele>284.0</ele><time>2026-04-21T10:45:58Z</time></trkpt><trkpt lat="45.847001182159985" lon="10.164812643654454"><ele>284.0</ele><time>2026-04-21T10:45:59Z</time></trkpt><trkpt lat="45.846941533310016" lon="10.164732729166362"><ele>284.0</ele><time>2026-04-21T10:46:00Z</time></trkpt><trkpt lat="45.84685125578285" lon="10.164653212050952"><ele>284.0</ele><time>2026-04-21T10:46:01Z</time></trkpt><trkpt lat="45.8467686204052" lon="10.164585202722115"><ele>283.5</ele><time>2026-04-21T10:46:02Z</time></trkpt><trkpt lat="45.846695004917486" lon="10.16455457770959"><ele>283.0</ele><time>2026-04-21T10:46:03Z</time></trkpt><trkpt lat="45.84661864384666" lon="10.164546745429798"><ele>282.5</ele><time>2026-04-21T10:46:04Z</time></trkpt><trkpt lat="45.846537477181485" lon="10.164584707878628"><ele>282.0</ele><time>2026-04-21T10:46:05Z</time></trkpt><trkpt lat="45.84647440341579" lon="10.16466561819261"><ele>281.5</ele><time>2026-04-21T10:46:06Z</time></trkpt><trkpt lat="45.84641867170697" lon="10.164767136694184"><ele>281.0</ele><time>2026-04-21T10:46:07Z</time></trkpt><trkpt lat="45.846375374484055" lon="10.164885127136134"><ele>282.5</ele><time>2026-04-21T10:46:08Z</time></trkpt><trkpt lat="45.84635261150141" lon="10.16504355795526"><ele>284.0</ele><time>2026-04-21T10:46:09Z</time></trkpt><trkpt lat="45.84636823709579" lon="10.165221031756449"><ele>285.5</ele><time>2026-04-21T10:46:10Z</time></trkpt><trkpt lat="45.84641242104777" lon="10.1654460809998"><ele>287.0</ele><time>2026-04-21T10:46:11Z</time></trkpt><trkpt lat="45.84642981112182" lon="10.16566998919753"><ele>289.6666666666667</ele><time>2026-04-21T10:46:12Z</time></trkpt><trkpt lat="45.84643597374445" lon="10.165869316082302"><ele>292.3333333333333</ele><time>2026-04-21T10:46:13Z</time></trkpt><trkpt lat="45.84645405735095" lon="10.16609388599158"><ele>295.0</ele><time>2026-04-21T10:46:14Z</time></trkpt><trkpt lat="45.846445845003295" lon="10.166317777118168"><ele>295.0</ele><time>2026-04-21T10:46:15Z</time></trkpt><trkpt lat="45.846451672328016" lon="10.166507975981405"><ele>295.0</ele><time>2026-04-21T10:46:16Z</time></trkpt><trkpt lat="45.846472233477954" lon="10.166668768748766"><ele>295.0</ele><time>2026-04-21T10:46:17Z</time></trkpt><trkpt lat="45.84648759805344" lon="10.166790879670346"><ele>295.0</ele><time>2026-04-21T10:46:18Z</time></trkpt><trkpt lat="45.8464634826833" lon="10.16693986492287"><ele>295.0</ele><time>2026-04-21T10:46:19.999Z</time></trkpt><trkpt lat="45.84638823841954" lon="10.16701709870807"><ele>296.16666666666663</ele><time>2026-04-21T10:46:20.999Z</time></trkpt><trkpt lat="45.84630953135548" lon="10.167109420756706"><ele>297.3333333333333</ele><time>2026-04-21T10:46:21.999Z</time></trkpt><trkpt lat="45.84628470422053" lon="10.16721894079929"><ele>298.5</ele><time>2026-04-21T10:46:22.999Z</time></trkpt><trkpt lat="45.846294602954394" lon="10.167352974455731"><ele>299.6666666666667</ele><time>2026-04-21T10:46:23.999Z</time></trkpt><trkpt lat="45.846268286686275" lon="10.167449379135487"><ele>300.83333333333337</ele><time>2026-04-21T10:46:24.999Z</time></trkpt><trkpt lat="45.84619337270026" lon="10.16752529769222"><ele>302.0</ele><time>2026-04-21T10:46:25.999Z</time></trkpt><trkpt lat="45.84610790777079" lon="10.167582482506116"><ele>303.6666666666667</ele><time>2026-04-21T10:46:26.999Z</time></trkpt><trkpt lat="45.846034979885324" lon="10.167649565336617"><ele>305.33333333333337</ele><time>2026-04-21T10:46:27.999Z</time></trkpt><trkpt lat="45.84596760573324" lon="10.167714504527455"><ele>307.0</ele><time>2026-04-21T10:46:28.999Z</time></trkpt><trkpt lat="45.84591737287191" lon="10.167788134126077"><ele>308.6666666666667</ele><time>2026-04-21T10:46:29.999Z</time></trkpt><trkpt lat="45.845915710358774" lon="10.16788304159089"><ele>310.3333333333333</ele><time>2026-04-21T10:46:30.999Z</time></trkpt><trkpt lat="45.84594663294299" lon="10.167981316275304"><ele>312.0</ele><time>2026-04-21T10:46:31.999Z</time></trkpt><trkpt lat="45.84597727008567" lon="10.168094803998951"><ele>313.6</ele><time>2026-04-21T10:46:32.999Z</time></trkpt><trkpt lat="45.84601265345445" lon="10.168242307567965"><ele>315.2</ele><time>2026-04-21T10:46:33.999Z</time></trkpt><trkpt lat="45.846043511460266" lon="10.168339271445905"><ele>316.8</ele><time>2026-04-21T10:46:34.999Z</time></trkpt><trkpt lat="45.84612080297052" lon="10.168443736099183"><ele>318.4</ele><time>2026-04-21T10:46:36.999Z</time></trkpt><trkpt lat="45.84618308911626" lon="10.168555399784122"><ele>320.0</ele><time>2026-04-21T10:46:38.999Z</time></trkpt><trkpt lat="45.8461375693881" lon="10.168657278398925"><ele>320.0</ele><time>2026-04-21T10:46:40.999Z</time></trkpt><trkpt lat="45.846055421615894" lon="10.16855225536949"><ele>320.0</ele><time>2026-04-21T10:46:42.999Z</time></trkpt><trkpt lat="45.84601592690071" lon="10.168445151610674"><ele>320.0</ele><time>2026-04-21T10:46:43.999Z</time></trkpt><trkpt lat="45.845955293134416" lon="10.168300047187376"><ele>320.0</ele><time>2026-04-21T10:46:44.999Z</time></trkpt><trkpt lat="45.845870005335705" lon="10.168113790746814"><ele>322.0</ele><time>2026-04-21T10:46:45.999Z</time></trkpt><trkpt lat="45.84582179410256" lon="10.167903257173045"><ele>324.0</ele><time>2026-04-21T10:46:46.999Z</time></trkpt><trkpt lat="45.84575408431438" lon="10.16764664583903"><ele>326.0</ele><time>2026-04-21T10:46:47.999Z</time></trkpt><trkpt lat="45.84569504596239" lon="10.167435751511928"><ele>323.0</ele><time>2026-04-21T10:46:48.999Z</time></trkpt><trkpt lat="45.84565059093798" lon="10.167290674692612"><ele>320.0</ele><time>2026-04-21T10:46:49.999Z</time></trkpt><trkpt lat="45.845600687978816" lon="10.16716574609404"><ele>317.0</ele><time>2026-04-21T10:46:50.999Z</time></trkpt><trkpt lat="45.84552741762025" lon="10.167039635218309"><ele>314.0</ele><time>2026-04-21T10:46:51.999Z</time></trkpt><trkpt lat="45.845433795422885" lon="10.166934463522178"><ele>311.0</ele><time>2026-04-21T10:46:52.999Z</time></trkpt><trkpt lat="45.84531667118449" lon="10.166795046459205"><ele>311.0</ele><time>2026-04-21T10:46:53.999Z</time></trkpt><trkpt lat="45.84519635097306" lon="10.16668209011982"><ele>311.0</ele><time>2026-04-21T10:46:54.999Z</time></trkpt><trkpt lat="45.84511915087974" lon="10.166657517559399"><ele>311.0</ele><time>2026-04-21T10:46:55.999Z</time></trkpt><trkpt lat="45.845030061704804" lon="10.166557257378381"><ele>311.0</ele><time>2026-04-21T10:46:56.999Z</time></trkpt><trkpt lat="45.84492013886021" lon="10.16652326531133"><ele>311.0</ele><time>2026-04-21T10:46:57.999Z</time></trkpt><trkpt lat="45.84480267629977" lon="10.166485656114308"><ele>313.6</ele><time>2026-04-21T10:46:58.999Z</time></trkpt><trkpt lat="45.84471191051862" lon="10.166438130116033"><ele>316.20000000000005</ele><time>2026-04-21T10:46:59.999Z</time></trkpt><trkpt lat="45.84463345819836" lon="10.166401760053045"><ele>318.79999999999995</ele><time>2026-04-21T10:47:00.999Z</time></trkpt><trkpt lat="45.84455801571328" lon="10.166350303892807"><ele>321.4</ele><time>2026-04-21T10:47:01.999Z</time></trkpt><trkpt lat="45.84448688483701" lon="10.166298001954475"><ele>324.0</ele><time>2026-04-21T10:47:02.999Z</time></trkpt><trkpt lat="45.84439886602011" lon="10.16620919667796"><ele>324.0</ele><time>2026-04-21T10:47:04.999Z</time></trkpt><trkpt lat="45.84430931870826" lon="10.166284940081548"><ele>324.0</ele><time>2026-04-21T10:47:06.999Z</time></trkpt><trkpt lat="45.8444005070449" lon="10.166478896488096"><ele>324.0</ele><time>2026-04-21T10:47:08.999Z</time></trkpt><trkpt lat="45.84451531204743" lon="10.16655330478643"><ele>324.0</ele><time>2026-04-21T10:47:10.999Z</time></trkpt><trkpt lat="45.84460381026257" lon="10.166627486782433"><ele>329.4</ele><time>2026-04-21T10:47:11.999Z</time></trkpt><trkpt lat="45.84468081622846" lon="10.166695335977582"><ele>334.79999999999995</ele><time>2026-04-21T10:47:12.999Z</time></trkpt><trkpt lat="45.844769258275946" lon="10.166787824252017"><ele>340.20000000000005</ele><time>2026-04-21T10:47:14.999Z</time></trkpt><trkpt lat="45.84481470514827" lon="10.166850932149805"><ele>345.6</ele><time>2026-04-21T10:47:15.999Z</time></trkpt><trkpt lat="45.84479953705071" lon="10.16699176202436"><ele>351.0</ele><time>2026-04-21T10:47:17.999Z</time></trkpt><trkpt lat="45.84487075552101" lon="10.167123083145944"><ele>351.0</ele><time>2026-04-21T10:47:18.999Z</time></trkpt><trkpt lat="45.84472538322248" lon="10.167019339442827"><ele>351.0</ele><time>2026-04-21T10:47:19.999Z</time></trkpt><trkpt lat="45.84466680437715" lon="10.166946995092074"><ele>351.0</ele><time>2026-04-21T10:47:20.999Z</time></trkpt><trkpt lat="45.84457494638354" lon="10.166870251109536"><ele>351.0</ele><time>2026-04-21T10:47:21.999Z</time></trkpt><trkpt lat="45.84448269014275" lon="10.166802254396849"><ele>351.0</ele><time>2026-04-21T10:47:22.999Z</time></trkpt><trkpt lat="45.84432907919262" lon="10.166671272352485"><ele>351.0</ele><time>2026-04-21T10:47:23.999Z</time></trkpt><trkpt lat="45.84420106110061" lon="10.166535437744642"><ele>351.0</ele><time>2026-04-21T10:47:24.999Z</time></trkpt><trkpt lat="45.84410593096286" lon="10.166429704732838"><ele>353.20000000000005</ele><time>2026-04-21T10:47:25.999Z</time></trkpt><trkpt lat="45.84404324347886" lon="10.166324156296023"><ele>355.40000000000003</ele><time>2026-04-21T10:47:26.999Z</time></trkpt><trkpt lat="45.843997669377266" lon="10.166238804420995"><ele>357.6</ele><time>2026-04-21T10:47:28.999Z</time></trkpt><trkpt lat="45.843908447168744" lon="10.166314138060859"><ele>359.8</ele><time>2026-04-21T10:47:30.999Z</time></trkpt><trkpt lat="45.84391283941561" lon="10.166490860118671"><ele>362.0</ele><time>2026-04-21T10:47:32.999Z</time></trkpt><trkpt lat="45.843925840516555" lon="10.166580222503066"><ele>362.0</ele><time>2026-04-21T10:47:33.999Z</time></trkpt><trkpt lat="45.84400652080133" lon="10.166613748587073"><ele>362.0</ele><time>2026-04-21T10:47:35.999Z</time></trkpt><trkpt lat="45.8439338621221" lon="10.166577625618608"><ele>362.0</ele><time>2026-04-21T10:47:46.998Z</time></trkpt><trkpt lat="45.843885634063255" lon="10.166472608197765"><ele>362.0</ele><time>2026-04-21T10:47:48.998Z</time></trkpt><trkpt lat="45.843776755163695" lon="10.166383215367084"><ele>362.0</ele><time>2026-04-21T10:47:50.998Z</time></trkpt><trkpt lat="45.843723376614804" lon="10.166327698425045"><ele>362.0</ele><time>2026-04-21T10:47:51.998Z</time></trkpt><trkpt lat="45.843625075332554" lon="10.166179456633955"><ele>362.0</ele><time>2026-04-21T10:47:53.998Z</time></trkpt><trkpt lat="45.84357739026501" lon="10.166119166034774"><ele>362.0</ele><time>2026-04-21T10:47:54.998Z</time></trkpt><trkpt lat="45.84348973273309" lon="10.165968100884644"><ele>362.0</ele><time>2026-04-21T10:47:56.998Z</time></trkpt><trkpt lat="45.84344289777464" lon="10.165906327858695"><ele>362.0</ele><time>2026-04-21T10:47:57.998Z</time></trkpt><trkpt lat="45.843352364473304" lon="10.165815334203481"><ele>362.0</ele><time>2026-04-21T10:48:00Z</time></trkpt><trkpt lat="45.84330733093178" lon="10.165730267017363"><ele>362.0</ele><time>2026-04-21T10:50:30.999Z</time></trkpt><trkpt lat="45.84324262074258" lon="10.165658963356169"><ele>367.1666666666667</ele><time>2026-04-21T10:50:33.999Z</time></trkpt><trkpt lat="45.84313949934862" lon="10.165525771307859"><ele>372.33333333333337</ele><time>2026-04-21T10:50:37.999Z</time></trkpt><trkpt lat="45.843082970993486" lon="10.165464829411409"><ele>377.5</ele><time>2026-04-21T10:50:40.999Z</time></trkpt><trkpt lat="45.843014708368685" lon="10.165452250305423"><ele>382.6666666666667</ele><time>2026-04-21T10:50:43.999Z</time></trkpt><trkpt lat="45.8429604369632" lon="10.165549851933845"><ele>387.8333333333333</ele><time>2026-04-21T10:50:48.999Z</time></trkpt><trkpt lat="45.84293038218547" lon="10.165646283028392"><ele>393.0</ele><time>2026-04-21T10:50:50.999Z</time></trkpt><trkpt lat="45.8428828827728" lon="10.165714288952765"><ele>396.3333333333333</ele><time>2026-04-21T10:50:53.999Z</time></trkpt><trkpt lat="45.842842902727405" lon="10.165799801803432"><ele>399.66666666666663</ele><time>2026-04-21T10:50:57.999Z</time></trkpt><trkpt lat="45.84281177797558" lon="10.165902204830111"><ele>403.0</ele><time>2026-04-21T10:50:59.999Z</time></trkpt><trkpt lat="45.84276542631109" lon="10.16600537969207"><ele>406.3333333333333</ele><time>2026-04-21T10:51:02.999Z</time></trkpt><trkpt lat="45.84271931875849" lon="10.166069853202883"><ele>409.66666666666663</ele><time>2026-04-21T10:51:03.999Z</time></trkpt><trkpt lat="45.84269384677735" lon="10.1662138944049"><ele>413.0</ele><time>2026-04-21T10:51:05.999Z</time></trkpt><trkpt lat="45.84267745823742" lon="10.166363145637607"><ele>412.99999999999994</ele><time>2026-04-21T10:51:06.999Z</time></trkpt><trkpt lat="45.84269731679212" lon="10.166499739373268"><ele>413.0</ele><time>2026-04-21T10:51:08.999Z</time></trkpt><trkpt lat="45.8426892007676" lon="10.166604455093736"><ele>413.0</ele><time>2026-04-21T10:51:10.999Z</time></trkpt><trkpt lat="45.84267317664541" lon="10.166693960788423"><ele>413.0</ele><time>2026-04-21T10:51:11.999Z</time></trkpt><trkpt lat="45.8426286823359" lon="10.166759246014443"><ele>412.99999999999994</ele><time>2026-04-21T10:51:12.999Z</time></trkpt><trkpt lat="45.842580876512024" lon="10.16686215077021"><ele>413.0</ele><time>2026-04-21T10:51:13.999Z</time></trkpt><trkpt lat="45.84255644292511" lon="10.166955751115001"><ele>420.57142857142856</ele><time>2026-04-21T10:51:14.999Z</time></trkpt><trkpt lat="45.84254491130446" lon="10.167093619932324"><ele>428.1428571428571</ele><time>2026-04-21T10:51:16.999Z</time></trkpt><trkpt lat="45.842490277189626" lon="10.16715978759508"><ele>435.7142857142857</ele><time>2026-04-21T10:51:19.999Z</time></trkpt><trkpt lat="45.84245161539704" lon="10.167247104894113"><ele>443.2857142857143</ele><time>2026-04-21T10:51:21.999Z</time></trkpt><trkpt lat="45.84243690849411" lon="10.16734261971954"><ele>450.85714285714283</ele><time>2026-04-21T10:51:24.998Z</time></trkpt><trkpt lat="45.842442899401284" lon="10.16743572753263"><ele>458.42857142857144</ele><time>2026-04-21T10:51:29.998Z</time></trkpt><trkpt lat="45.84245253751761" lon="10.167536515271662"><ele>466.0</ele><time>2026-04-21T10:52:01.998Z</time></trkpt><trkpt lat="45.842492792967946" lon="10.167462712262093"><ele>466.00000000000006</ele><time>2026-04-21T10:57:45.999Z</time></trkpt><trkpt lat="45.8425669600398" lon="10.167405203869095"><ele>466.0</ele><time>2026-04-21T10:57:49.999Z</time></trkpt><trkpt lat="45.84261526700305" lon="10.167342160553359"><ele>466.0</ele><time>2026-04-21T10:57:53.999Z</time></trkpt><trkpt lat="45.84257859132954" lon="10.167475387091068"><ele>466.0</ele><time>2026-04-21T10:58:16.999Z</time></trkpt><trkpt lat="45.842547649067164" lon="10.167588427676133"><ele>466.00000000000006</ele><time>2026-04-21T10:58:19.998Z</time></trkpt><trkpt lat="45.842494430608" lon="10.16770674353012"><ele>466.0</ele><time>2026-04-21T10:58:22.998Z</time></trkpt><trkpt lat="45.84246501594991" lon="10.16781338469341"><ele>469.0</ele><time>2026-04-21T10:58:25.998Z</time></trkpt><trkpt lat="45.842450689826975" lon="10.167927552610879"><ele>472.0</ele><time>2026-04-21T10:58:28.999Z</time></trkpt><trkpt lat="45.84240304843464" lon="10.168058566764627"><ele>475.0</ele><time>2026-04-21T10:58:34.999Z</time></trkpt><trkpt lat="45.842395668947375" lon="10.16824481424499"><ele>478.0</ele><time>2026-04-21T10:58:36.999Z</time></trkpt><trkpt lat="45.84240500312417" lon="10.168393558289244"><ele>481.0</ele><time>2026-04-21T10:58:38.999Z</time></trkpt><trkpt lat="45.84241384456517" lon="10.168493890713245"><ele>483.1666666666667</ele><time>2026-04-21T10:58:39.999Z</time></trkpt><trkpt lat="45.84241588066596" lon="10.168611738739626"><ele>485.33333333333337</ele><time>2026-04-21T10:58:43.999Z</time></trkpt><trkpt lat="45.84240200868631" lon="10.168708947441441"><ele>487.5</ele><time>2026-04-21T10:58:45.999Z</time></trkpt><trkpt lat="45.842375203104226" lon="10.168847963524163"><ele>489.66666666666663</ele><time>2026-04-21T10:58:50.999Z</time></trkpt><trkpt lat="45.84238102756275" lon="10.168969763309748"><ele>491.8333333333333</ele><time>2026-04-21T10:58:53.999Z</time></trkpt><trkpt lat="45.84243925245952" lon="10.169097645166788"><ele>494.0</ele><time>2026-04-21T10:58:55.999Z</time></trkpt><trkpt lat="45.84244035516684" lon="10.169189666154017"><ele>496.99999999999994</ele><time>2026-04-21T10:58:58.999Z</time></trkpt><trkpt lat="45.84239645009591" lon="10.1693073496771"><ele>500.0</ele><time>2026-04-21T10:59:01.999Z</time></trkpt><trkpt lat="45.84239196649974" lon="10.169430340101831"><ele>503.0</ele><time>2026-04-21T10:59:02.999Z</time></trkpt><trkpt lat="45.84241098081839" lon="10.169536724740645"><ele>506.0</ele><time>2026-04-21T10:59:03.999Z</time></trkpt><trkpt lat="45.84241716085469" lon="10.1696748034054"><ele>508.99999999999994</ele><time>2026-04-21T10:59:05.999Z</time></trkpt><trkpt lat="45.84241075568324" lon="10.169805989512026"><ele>512.0</ele><time>2026-04-21T10:59:08.999Z</time></trkpt><trkpt lat="45.84238625057262" lon="10.16989638352695"><ele>515.1666666666666</ele><time>2026-04-21T10:59:10.999Z</time></trkpt><trkpt lat="45.8423923694577" lon="10.169999960905743"><ele>518.3333333333333</ele><time>2026-04-21T10:59:11.999Z</time></trkpt><trkpt lat="45.8424040327353" lon="10.170168378744915"><ele>521.5</ele><time>2026-04-21T10:59:13.999Z</time></trkpt><trkpt lat="45.842457264074895" lon="10.170286158925746"><ele>524.6666666666666</ele><time>2026-04-21T10:59:15.999Z</time></trkpt><trkpt lat="45.84246327077028" lon="10.170391144659854"><ele>527.8333333333334</ele><time>2026-04-21T10:59:17.999Z</time></trkpt><trkpt lat="45.84249548835769" lon="10.170469903090233"><ele>531.0</ele><time>2026-04-21T10:59:19.999Z</time></trkpt><trkpt lat="45.84250515612442" lon="10.170608804784733"><ele>534.4</ele><time>2026-04-21T10:59:22.999Z</time></trkpt><trkpt lat="45.84250868468151" lon="10.170761683322747"><ele>537.8</ele><time>2026-04-21T10:59:24.999Z</time></trkpt><trkpt lat="45.84248967893611" lon="10.170868660040153"><ele>541.1999999999999</ele><time>2026-04-21T10:59:26.999Z</time></trkpt><trkpt lat="45.8424990144514" lon="10.170997099792519"><ele>544.6</ele><time>2026-04-21T10:59:28.999Z</time></trkpt><trkpt lat="45.84251703134937" lon="10.171147405481937"><ele>548.0</ele><time>2026-04-21T10:59:30.999Z</time></trkpt><trkpt lat="45.84251556886762" lon="10.171319655008382"><ele>548.0</ele><time>2026-04-21T10:59:33.999Z</time></trkpt><trkpt lat="45.842521310748026" lon="10.171410100260987"><ele>548.0</ele><time>2026-04-21T10:59:34.999Z</time></trkpt><trkpt lat="45.84252693508195" lon="10.171526787517966"><ele>548.0</ele><time>2026-04-21T10:59:35.999Z</time></trkpt><trkpt lat="45.84253253687026" lon="10.171629859436186"><ele>548.0</ele><time>2026-04-21T10:59:36.999Z</time></trkpt><trkpt lat="45.84250020376591" lon="10.171711562992957"><ele>548.0</ele><time>2026-04-21T10:59:39.999Z</time></trkpt><trkpt lat="45.84246932430459" lon="10.172073125644332"><ele>550.75</ele><time>2026-04-21T10:59:41.999Z</time></trkpt><trkpt lat="45.84243122553488" lon="10.17222559646685"><ele>553.5</ele><time>2026-04-21T10:59:43.999Z</time></trkpt><trkpt lat="45.84240677942977" lon="10.172322553839939"><ele>556.25</ele><time>2026-04-21T10:59:45.999Z</time></trkpt><trkpt lat="45.84237634494917" lon="10.172467387744502"><ele>559.0</ele><time>2026-04-21T10:59:49.999Z</time></trkpt><trkpt lat="45.842405660093185" lon="10.172709003949072"><ele>559.0</ele><time>2026-04-21T10:59:57.999Z</time></trkpt><trkpt lat="45.84242055709582" lon="10.172831219266309"><ele>559.0</ele><time>2026-04-21T10:59:58.999Z</time></trkpt><trkpt lat="45.84242577600085" lon="10.172946020029112"><ele>559.0</ele><time>2026-04-21T11:00:00Z</time></trkpt><trkpt lat="45.84238580147868" lon="10.173061170937311"><ele>559.0</ele><time>2026-04-21T11:00:02Z</time></trkpt><trkpt lat="45.842327009155554" lon="10.173132062236716"><ele>559.0</ele><time>2026-04-21T11:00:04Z</time></trkpt><trkpt lat="45.84228415416178" lon="10.173242009198658"><ele>559.0</ele><time>2026-04-21T11:00:06Z</time></trkpt><trkpt lat="45.84223412381064" lon="10.173376110667697"><ele>559.0</ele><time>2026-04-21T11:00:08Z</time></trkpt><trkpt lat="45.842182337317325" lon="10.173506567829053"><ele>559.0</ele><time>2026-04-21T11:00:10Z</time></trkpt><trkpt lat="45.842111467657936" lon="10.173600478550174"><ele>559.0</ele><time>2026-04-21T11:00:12Z</time></trkpt><trkpt lat="45.84203847945" lon="10.173679049226354"><ele>559.0</ele><time>2026-04-21T11:00:14Z</time></trkpt><trkpt lat="45.84197856532382" lon="10.173753457085322"><ele>559.0</ele><time>2026-04-21T11:00:15Z</time></trkpt><trkpt lat="45.8419372963909" lon="10.17383732585931"><ele>559.0</ele><time>2026-04-21T11:00:16Z</time></trkpt><trkpt lat="45.84184280307998" lon="10.173915240325707"><ele>565.0</ele><time>2026-04-21T11:00:17.999Z</time></trkpt><trkpt lat="45.84178618428892" lon="10.173962307866772"><ele>571.0</ele><time>2026-04-21T11:00:18.999Z</time></trkpt><trkpt lat="45.841716691932675" lon="10.1740102384072"><ele>577.0</ele><time>2026-04-21T11:00:19.999Z</time></trkpt><trkpt lat="45.84164305868363" lon="10.174042881311046"><ele>583.0</ele><time>2026-04-21T11:00:20.999Z</time></trkpt><trkpt lat="45.841587593437104" lon="10.17408606140167"><ele>589.0</ele><time>2026-04-21T11:00:21.999Z</time></trkpt><trkpt lat="45.8415019292443" lon="10.174156534251377"><ele>595.0</ele><time>2026-04-21T11:00:23.999Z</time></trkpt><trkpt lat="45.84150290912293" lon="10.17428575373521"><ele>595.0</ele><time>2026-04-21T11:00:25.999Z</time></trkpt><trkpt lat="45.841451868562146" lon="10.174379302953787"><ele>595.0</ele><time>2026-04-21T11:00:27.999Z</time></trkpt><trkpt lat="45.84135205820765" lon="10.174429496948784"><ele>595.0</ele><time>2026-04-21T11:00:29.999Z</time></trkpt><trkpt lat="45.841280523739364" lon="10.174510895086941"><ele>595.0</ele><time>2026-04-21T11:00:31.999Z</time></trkpt><trkpt lat="45.84121046658375" lon="10.174573691697079"><ele>595.0</ele><time>2026-04-21T11:00:33.999Z</time></trkpt><trkpt lat="45.84116842511353" lon="10.174649857320489"><ele>595.0</ele><time>2026-04-21T11:00:36.999Z</time></trkpt><trkpt lat="45.841150232514174" lon="10.174550304446388"><ele>595.0</ele><time>2026-04-21T11:00:46Z</time></trkpt><trkpt lat="45.84112361604102" lon="10.174439770607007"><ele>595.0</ele><time>2026-04-21T11:00:50Z</time></trkpt><trkpt lat="45.84113398337609" lon="10.174315170370676"><ele>595.0</ele><time>2026-04-21T11:00:53Z</time></trkpt><trkpt lat="45.84118262127458" lon="10.174223861793472"><ele>595.0</ele><time>2026-04-21T11:00:57Z</time></trkpt><trkpt lat="45.84122704709533" lon="10.174099202861388"><ele>595.0</ele><time>2026-04-21T11:01:00Z</time></trkpt><trkpt lat="45.84128340292044" lon="10.173998646181877"><ele>595.0</ele><time>2026-04-21T11:01:02Z</time></trkpt><trkpt lat="45.84133603203484" lon="10.17392357735071"><ele>597.2857142857143</ele><time>2026-04-21T11:01:04Z</time></trkpt><trkpt lat="45.841362982277225" lon="10.173831507434416"><ele>599.5714285714286</ele><time>2026-04-21T11:01:07Z</time></trkpt><trkpt lat="45.84140337098694" lon="10.173750840143528"><ele>601.8571428571429</ele><time>2026-04-21T11:01:10Z</time></trkpt><trkpt lat="45.84142313696818" lon="10.17366424432759"><ele>604.1428571428571</ele><time>2026-04-21T11:01:14Z</time></trkpt><trkpt lat="45.8414428594731" lon="10.173553033650162"><ele>606.4285714285714</ele><time>2026-04-21T11:01:24Z</time></trkpt><trkpt lat="45.84144950082555" lon="10.1734392198153"><ele>608.7142857142858</ele><time>2026-04-21T11:01:31Z</time></trkpt><trkpt lat="45.84144927561103" lon="10.173347363318273"><ele>611.0</ele><time>2026-04-21T11:01:37Z</time></trkpt><trkpt lat="45.841388172659244" lon="10.17347467896381"><ele>611.0</ele><time>2026-04-21T11:01:40Z</time></trkpt><trkpt lat="45.8413267546481" lon="10.173437380825657"><ele>611.0</ele><time>2026-04-21T11:01:44Z</time></trkpt><trkpt lat="45.841260773875426" lon="10.173344687244738"><ele>611.0</ele><time>2026-04-21T11:01:47Z</time></trkpt><trkpt lat="45.841191352594336" lon="10.173314644496275"><ele>611.0</ele><time>2026-04-21T11:01:50Z</time></trkpt><trkpt lat="45.84110661269721" lon="10.173307090461893"><ele>611.0</ele><time>2026-04-21T11:01:54Z</time></trkpt><trkpt lat="45.84102528825034" lon="10.173326906802373"><ele>611.0</ele><time>2026-04-21T11:01:58Z</time></trkpt><trkpt lat="45.84097588772212" lon="10.173234942076872"><ele>616.0000000000001</ele><time>2026-04-21T11:02:01Z</time></trkpt><trkpt lat="45.84090033768419" lon="10.173205810914263"><ele>621.0</ele><time>2026-04-21T11:02:04Z</time></trkpt><trkpt lat="45.840831046775016" lon="10.173206207743497"><ele>626.0</ele><time>2026-04-21T11:02:07Z</time></trkpt><trkpt lat="45.84076568938261" lon="10.173214113119238"><ele>631.0</ele><time>2026-04-21T11:02:13Z</time></trkpt><trkpt lat="45.84070078713441" lon="10.173207467172311"><ele>636.0</ele><time>2026-04-21T11:02:43.999Z</time></trkpt><trkpt lat="45.84066631587964" lon="10.173120625515281"><ele>641.0000000000001</ele><time>2026-04-21T11:02:48Z</time></trkpt><trkpt lat="45.84060383657172" lon="10.173047505295235"><ele>646.0</ele><time>2026-04-21T11:02:51Z</time></trkpt><trkpt lat="45.84056009216049" lon="10.17296637545092"><ele>646.8333333333334</ele><time>2026-04-21T11:02:53Z</time></trkpt><trkpt lat="45.840503736950595" lon="10.172855414861095"><ele>647.6666666666667</ele><time>2026-04-21T11:02:55Z</time></trkpt><trkpt lat="45.840454598548796" lon="10.172777998819752"><ele>648.5</ele><time>2026-04-21T11:03:00Z</time></trkpt><trkpt lat="45.840399963527396" lon="10.172719938687477"><ele>649.3333333333334</ele><time>2026-04-21T11:03:10Z</time></trkpt><trkpt lat="45.84034336119649" lon="10.172676780510606"><ele>650.1666666666666</ele><time>2026-04-21T11:03:16Z</time></trkpt><trkpt lat="45.840290948138275" lon="10.172737339534995"><ele>651.0</ele><time>2026-04-21T11:05:41Z</time></trkpt><trkpt lat="45.840370244844756" lon="10.172691013748214"><ele>651.0</ele><time>2026-04-21T11:11:00Z</time></trkpt><trkpt lat="45.84029226658623" lon="10.172652003345961"><ele>651.0</ele><time>2026-04-21T11:11:39Z</time></trkpt><trkpt lat="45.840200061888076" lon="10.172693014724397"><ele>651.0</ele><time>2026-04-21T11:12:57Z</time></trkpt><trkpt lat="45.8402750799694" lon="10.172706616893636"><ele>651.0</ele><time>2026-04-21T11:13:04Z</time></trkpt><trkpt lat="45.84033700181097" lon="10.172755938412347"><ele>651.0</ele><time>2026-04-21T11:13:09Z</time></trkpt><trkpt lat="45.840383894981805" lon="10.172829258717007"><ele>651.0</ele><time>2026-04-21T11:13:14Z</time></trkpt><trkpt lat="45.84042013001721" lon="10.172904584272281"><ele>651.0</ele><time>2026-04-21T11:13:18Z</time></trkpt><trkpt lat="45.84047365009925" lon="10.172980431548707"><ele>651.0</ele><time>2026-04-21T11:13:24Z</time></trkpt><trkpt lat="45.840523030926285" lon="10.173036764255452"><ele>651.0</ele><time>2026-04-21T11:13:27Z</time></trkpt><trkpt lat="45.840592923536654" lon="10.17304504461304"><ele>651.0</ele><time>2026-04-21T11:13:31Z</time></trkpt><trkpt lat="45.840658573673466" lon="10.17306189409639"><ele>651.0</ele><time>2026-04-21T11:13:33Z</time></trkpt><trkpt lat="45.840743120915135" lon="10.173093391631706"><ele>651.0</ele><time>2026-04-21T11:13:37Z</time></trkpt><trkpt lat="45.840804338122986" lon="10.173172567677668"><ele>651.0</ele><time>2026-04-21T11:13:41Z</time></trkpt><trkpt lat="45.84087350155321" lon="10.173206047190599"><ele>651.0</ele><time>2026-04-21T11:13:44Z</time></trkpt><trkpt lat="45.84093333575131" lon="10.173165606530137"><ele>651.0</ele><time>2026-04-21T11:13:47Z</time></trkpt><trkpt lat="45.841014040656134" lon="10.173206252889463"><ele>651.0</ele><time>2026-04-21T11:13:50Z</time></trkpt><trkpt lat="45.8410846685293" lon="10.173265193343479"><ele>651.0</ele><time>2026-04-21T11:13:53Z</time></trkpt><trkpt lat="45.84114014984413" lon="10.173323822175599"><ele>651.0</ele><time>2026-04-21T11:13:56Z</time></trkpt><trkpt lat="45.8412037304444" lon="10.173349928231032"><ele>651.0</ele><time>2026-04-21T11:13:59Z</time></trkpt><trkpt lat="45.84126903198206" lon="10.173339686029193"><ele>651.0</ele><time>2026-04-21T11:14:02Z</time></trkpt><trkpt lat="45.84134353752373" lon="10.17338977449564"><ele>643.0</ele><time>2026-04-21T11:14:04Z</time></trkpt><trkpt lat="45.84140357691102" lon="10.173360961802604"><ele>635.0</ele><time>2026-04-21T11:14:11Z</time></trkpt><trkpt lat="45.84145687282158" lon="10.173309868775846"><ele>627.0</ele><time>2026-04-21T11:14:13Z</time></trkpt><trkpt lat="45.84140867609168" lon="10.173426369717358"><ele>619.0</ele><time>2026-04-21T11:14:21Z</time></trkpt><trkpt lat="45.84129859007148" lon="10.17355752110729"><ele>611.0</ele><time>2026-04-21T11:14:23Z</time></trkpt><trkpt lat="45.84121554774245" lon="10.17361559287924"><ele>611.0</ele><time>2026-04-21T11:14:25Z</time></trkpt><trkpt lat="45.84115754284577" lon="10.173659561758052"><ele>611.0</ele><time>2026-04-21T11:14:26Z</time></trkpt><trkpt lat="45.84103971795375" lon="10.173718289354957"><ele>611.0</ele><time>2026-04-21T11:14:28Z</time></trkpt><trkpt lat="45.840973215239046" lon="10.173753882174678"><ele>611.0</ele><time>2026-04-21T11:14:29Z</time></trkpt><trkpt lat="45.84090359501123" lon="10.173787864171384"><ele>611.0</ele><time>2026-04-21T11:14:30Z</time></trkpt><trkpt lat="45.84080500592427" lon="10.173840938873775"><ele>611.0</ele><time>2026-04-21T11:14:32Z</time></trkpt><trkpt lat="45.84086512076794" lon="10.173907212549992"><ele>611.0</ele><time>2026-04-21T11:14:36Z</time></trkpt><trkpt lat="45.84117631969464" lon="10.17375645881972"><ele>611.0</ele><time>2026-04-21T11:14:38Z</time></trkpt><trkpt lat="45.841254515253" lon="10.173696587226626"><ele>611.0</ele><time>2026-04-21T11:14:39Z</time></trkpt><trkpt lat="45.84133313552761" lon="10.17363058333368"><ele>611.0000000000001</ele><time>2026-04-21T11:14:41Z</time></trkpt><trkpt lat="45.84136569993547" lon="10.173534718922799"><ele>611.0</ele><time>2026-04-21T11:14:44Z</time></trkpt><trkpt lat="45.841432026174864" lon="10.173498988245665"><ele>611.0</ele><time>2026-04-21T11:14:48Z</time></trkpt><trkpt lat="45.841427702693274" lon="10.17362106609594"><ele>611.0</ele><time>2026-04-21T11:14:53Z</time></trkpt><trkpt lat="45.841389227266205" lon="10.173708404931844"><ele>611.0</ele><time>2026-04-21T11:14:56Z</time></trkpt><trkpt lat="45.841348763650096" lon="10.173799644851295"><ele>611.0000000000001</ele><time>2026-04-21T11:14:58Z</time></trkpt><trkpt lat="45.84129532307694" lon="10.173861531624738"><ele>611.0</ele><time>2026-04-21T11:15:00Z</time></trkpt><trkpt lat="45.84124074148979" lon="10.17397361440274"><ele>608.3333333333333</ele><time>2026-04-21T11:15:03Z</time></trkpt><trkpt lat="45.84120042750528" lon="10.17407601513914"><ele>605.6666666666666</ele><time>2026-04-21T11:15:05Z</time></trkpt><trkpt lat="45.84114743857813" lon="10.174192243783104"><ele>603.0</ele><time>2026-04-21T11:15:07Z</time></trkpt><trkpt lat="45.841141577110776" lon="10.174294403098074"><ele>600.3333333333334</ele><time>2026-04-21T11:15:09Z</time></trkpt><trkpt lat="45.841133166136366" lon="10.174421490161198"><ele>597.6666666666667</ele><time>2026-04-21T11:15:12Z</time></trkpt><trkpt lat="45.84111100089405" lon="10.174543405409077"><ele>595.0</ele><time>2026-04-21T11:15:15Z</time></trkpt><trkpt lat="45.84115737141919" lon="10.17461104702331"><ele>595.0</ele><time>2026-04-21T11:15:19Z</time></trkpt><trkpt lat="45.84122891624808" lon="10.174572075099249"><ele>595.0</ele><time>2026-04-21T11:15:21Z</time></trkpt><trkpt lat="45.84130126512291" lon="10.174534687612717"><ele>595.0</ele><time>2026-04-21T11:15:24Z</time></trkpt><trkpt lat="45.84136047021143" lon="10.174503513306496"><ele>595.0</ele><time>2026-04-21T11:15:26Z</time></trkpt><trkpt lat="45.84141955792266" lon="10.174449362817622"><ele>595.0</ele><time>2026-04-21T11:15:28Z</time></trkpt><trkpt lat="45.84145701513599" lon="10.174354168679654"><ele>595.0</ele><time>2026-04-21T11:15:31Z</time></trkpt><trkpt lat="45.84148161919097" lon="10.174265950880782"><ele>595.0</ele><time>2026-04-21T11:15:33Z</time></trkpt><trkpt lat="45.84155040931718" lon="10.174220668008427"><ele>595.0</ele><time>2026-04-21T11:15:36Z</time></trkpt><trkpt lat="45.841609987959" lon="10.174188608749315"><ele>595.0</ele><time>2026-04-21T11:15:37Z</time></trkpt><trkpt lat="45.84167244115561" lon="10.174112340450447"><ele>595.0</ele><time>2026-04-21T11:15:39Z</time></trkpt><trkpt lat="45.841755458099826" lon="10.174034141600089"><ele>595.0</ele><time>2026-04-21T11:15:41Z</time></trkpt><trkpt lat="45.84183181752017" lon="10.173955894769593"><ele>595.0</ele><time>2026-04-21T11:15:43Z</time></trkpt><trkpt lat="45.84192377642648" lon="10.173870201359223"><ele>595.0</ele><time>2026-04-21T11:15:45Z</time></trkpt><trkpt lat="45.841990460203355" lon="10.173819663725597"><ele>589.0</ele><time>2026-04-21T11:15:46Z</time></trkpt><trkpt lat="45.842068837382186" lon="10.173761729857095"><ele>583.0</ele><time>2026-04-21T11:15:48Z</time></trkpt><trkpt lat="45.84212795134698" lon="10.173713613868967"><ele>577.0</ele><time>2026-04-21T11:15:50Z</time></trkpt><trkpt lat="45.842180211686475" lon="10.173616624334189"><ele>571.0</ele><time>2026-04-21T11:15:52Z</time></trkpt><trkpt lat="45.84220533619818" lon="10.173525397328572"><ele>565.0</ele><time>2026-04-21T11:15:54Z</time></trkpt><trkpt lat="45.84223555580146" lon="10.173443529773435"><ele>559.0</ele><time>2026-04-21T11:15:56Z</time></trkpt><trkpt lat="45.8422797775585" lon="10.173316206484088"><ele>559.0</ele><time>2026-04-21T11:15:58Z</time></trkpt><trkpt lat="45.84232818443113" lon="10.173204104451429"><ele>559.0</ele><time>2026-04-21T11:16:02Z</time></trkpt><trkpt lat="45.842385578188036" lon="10.173070512825841"><ele>559.0</ele><time>2026-04-21T11:16:04Z</time></trkpt><trkpt lat="45.84237016729722" lon="10.172928997233978"><ele>559.0</ele><time>2026-04-21T11:16:06Z</time></trkpt><trkpt lat="45.84238192593106" lon="10.172836387759759"><ele>559.0</ele><time>2026-04-21T11:16:08Z</time></trkpt><trkpt lat="45.84241377347795" lon="10.172727821675426"><ele>559.0</ele><time>2026-04-21T11:16:11Z</time></trkpt><trkpt lat="45.84242101049921" lon="10.17258989165149"><ele>559.0</ele><time>2026-04-21T11:16:12Z</time></trkpt><trkpt lat="45.84242798276658" lon="10.172441519323797"><ele>559.0</ele><time>2026-04-21T11:16:13Z</time></trkpt><trkpt lat="45.84243585216867" lon="10.172293762414993"><ele>559.0</ele><time>2026-04-21T11:16:14Z</time></trkpt><trkpt lat="45.84244284248204" lon="10.172159478404014"><ele>559.0</ele><time>2026-04-21T11:16:15Z</time></trkpt><trkpt lat="45.84242479461844" lon="10.172038722695302"><ele>559.0</ele><time>2026-04-21T11:16:16Z</time></trkpt><trkpt lat="45.84240975983856" lon="10.171915029593412"><ele>559.0</ele><time>2026-04-21T11:16:17Z</time></trkpt><trkpt lat="45.84237831351091" lon="10.171784910281572"><ele>559.0</ele><time>2026-04-21T11:16:18Z</time></trkpt><trkpt lat="45.84233899987694" lon="10.171646617091007"><ele>559.0</ele><time>2026-04-21T11:16:19Z</time></trkpt><trkpt lat="45.842313835428264" lon="10.171508328350205"><ele>559.0</ele><time>2026-04-21T11:16:20Z</time></trkpt><trkpt lat="45.8422828071692" lon="10.171357777523802"><ele>559.0</ele><time>2026-04-21T11:16:21Z</time></trkpt><trkpt lat="45.84225940110551" lon="10.171211442647571"><ele>557.1666666666667</ele><time>2026-04-21T11:16:22Z</time></trkpt><trkpt lat="45.84224094312357" lon="10.171075824310167"><ele>555.3333333333334</ele><time>2026-04-21T11:16:23Z</time></trkpt><trkpt lat="45.842234405094146" lon="10.170942192827997"><ele>553.5</ele><time>2026-04-21T11:16:24Z</time></trkpt><trkpt lat="45.842233147065265" lon="10.170816286913853"><ele>551.6666666666666</ele><time>2026-04-21T11:16:25Z</time></trkpt><trkpt lat="45.84222593301181" lon="10.170719102517026"><ele>549.8333333333333</ele><time>2026-04-21T11:16:26Z</time></trkpt><trkpt lat="45.84218700837406" lon="10.170627583378593"><ele>548.0</ele><time>2026-04-21T11:16:27Z</time></trkpt><trkpt lat="45.84214785736235" lon="10.17055599496442"><ele>542.3333333333333</ele><time>2026-04-21T11:16:28Z</time></trkpt><trkpt lat="45.84215528065056" lon="10.17019846700015"><ele>536.6666666666666</ele><time>2026-04-21T11:16:29Z</time></trkpt><trkpt lat="45.84201123537749" lon="10.170138117553929"><ele>531.0</ele><time>2026-04-21T11:16:30Z</time></trkpt><trkpt lat="45.841960393017885" lon="10.170019323993355"><ele>531.0</ele><time>2026-04-21T11:16:31Z</time></trkpt><trkpt lat="45.84192414644609" lon="10.169897455909624"><ele>531.0</ele><time>2026-04-21T11:16:32Z</time></trkpt><trkpt lat="45.841907270687216" lon="10.169772293688078"><ele>531.0</ele><time>2026-04-21T11:16:33Z</time></trkpt><trkpt lat="45.841882734623276" lon="10.169640308266446"><ele>531.0</ele><time>2026-04-21T11:16:34Z</time></trkpt><trkpt lat="45.84186381803819" lon="10.16951895318475"><ele>531.0</ele><time>2026-04-21T11:16:35Z</time></trkpt><trkpt lat="45.84183884162579" lon="10.169397970909115"><ele>530.5</ele><time>2026-04-21T11:16:36Z</time></trkpt><trkpt lat="45.84181504803331" lon="10.1692781112611"><ele>530.0</ele><time>2026-04-21T11:16:37Z</time></trkpt><trkpt lat="45.84179158117951" lon="10.169152435714416"><ele>529.5</ele><time>2026-04-21T11:16:38Z</time></trkpt><trkpt lat="45.841770738953116" lon="10.169038669633437"><ele>529.0</ele><time>2026-04-21T11:16:39Z</time></trkpt><trkpt lat="45.841743760100094" lon="10.168922749085342"><ele>528.5</ele><time>2026-04-21T11:16:40Z</time></trkpt><trkpt lat="45.84170268725522" lon="10.168813174548726"><ele>528.0</ele><time>2026-04-21T11:16:41Z</time></trkpt><trkpt lat="45.84167333556704" lon="10.168713856490303"><ele>528.0</ele><time>2026-04-21T11:16:42Z</time></trkpt><trkpt lat="45.84165731425256" lon="10.168609894385822"><ele>528.0</ele><time>2026-04-21T11:16:43Z</time></trkpt><trkpt lat="45.841658623085465" lon="10.168503975540743"><ele>528.0</ele><time>2026-04-21T11:16:44Z</time></trkpt><trkpt lat="45.84165495168172" lon="10.16839967486416"><ele>528.0</ele><time>2026-04-21T11:16:45Z</time></trkpt><trkpt lat="45.84166503464248" lon="10.16829250430704"><ele>528.0</ele><time>2026-04-21T11:16:46Z</time></trkpt><trkpt lat="45.841665188425196" lon="10.16813438821363"><ele>528.0</ele><time>2026-04-21T11:16:48Z</time></trkpt><trkpt lat="45.841610014484985" lon="10.168043654049605"><ele>525.8333333333334</ele><time>2026-04-21T11:16:50Z</time></trkpt><trkpt lat="45.841556585718" lon="10.167982201652917"><ele>523.6666666666666</ele><time>2026-04-21T11:16:51Z</time></trkpt><trkpt lat="45.84149801250567" lon="10.167927274953115"><ele>521.5</ele><time>2026-04-21T11:16:52Z</time></trkpt><trkpt lat="45.84143148982035" lon="10.167862273101738"><ele>519.3333333333333</ele><time>2026-04-21T11:16:53Z</time></trkpt><trkpt lat="45.84137592680254" lon="10.167768771300322"><ele>517.1666666666666</ele><time>2026-04-21T11:16:54Z</time></trkpt><trkpt lat="45.84135371485979" lon="10.167636363173715"><ele>515.0</ele><time>2026-04-21T11:16:55Z</time></trkpt><trkpt lat="45.841333550067176" lon="10.167529300475326"><ele>515.0</ele><time>2026-04-21T11:16:56Z</time></trkpt><trkpt lat="45.841322536361396" lon="10.167422850538308"><ele>515.0</ele><time>2026-04-21T11:16:57Z</time></trkpt><trkpt lat="45.84133859884773" lon="10.167318019635589"><ele>515.0</ele><time>2026-04-21T11:16:58Z</time></trkpt><trkpt lat="45.8413187613306" lon="10.16721413740898"><ele>515.0</ele><time>2026-04-21T11:16:59Z</time></trkpt><trkpt lat="45.84130566646141" lon="10.167111127249795"><ele>515.0</ele><time>2026-04-21T11:17:00Z</time></trkpt><trkpt lat="45.84129094121723" lon="10.16695538419744"><ele>515.0</ele><time>2026-04-21T11:17:02Z</time></trkpt><trkpt lat="45.84141719610114" lon="10.166962772912498"><ele>515.0</ele><time>2026-04-21T11:17:04Z</time></trkpt><trkpt lat="45.841452899407436" lon="10.167038796731768"><ele>515.0</ele><time>2026-04-21T11:17:05Z</time></trkpt><trkpt lat="45.84143901248497" lon="10.16714790951518"><ele>515.0</ele><time>2026-04-21T11:17:06Z</time></trkpt><trkpt lat="45.841497949222514" lon="10.167271024299994"><ele>515.0</ele><time>2026-04-21T11:17:08Z</time></trkpt><trkpt lat="45.84154767384152" lon="10.167415440696283"><ele>515.0</ele><time>2026-04-21T11:17:10Z</time></trkpt><trkpt lat="45.841619349508015" lon="10.167562666001423"><ele>515.0</ele><time>2026-04-21T11:17:12Z</time></trkpt><trkpt lat="45.841658517301084" lon="10.167635985038423"><ele>515.0</ele><time>2026-04-21T11:17:13Z</time></trkpt><trkpt lat="45.8417393569207" lon="10.167784640420304"><ele>515.0</ele><time>2026-04-21T11:17:15Z</time></trkpt><trkpt lat="45.841815959042485" lon="10.167919068433436"><ele>515.0</ele><time>2026-04-21T11:17:17Z</time></trkpt><trkpt lat="45.84186471266047" lon="10.168053519297908"><ele>515.0</ele><time>2026-04-21T11:17:19Z</time></trkpt><trkpt lat="45.84188565585023" lon="10.168216728683156"><ele>512.0</ele><time>2026-04-21T11:17:21Z</time></trkpt><trkpt lat="45.84192380119795" lon="10.168316517515212"><ele>509.0</ele><time>2026-04-21T11:17:22.001Z</time></trkpt><trkpt lat="45.84196403408641" lon="10.16840437630381"><ele>506.0</ele><time>2026-04-21T11:17:23.001Z</time></trkpt><trkpt lat="45.842008532196814" lon="10.168481127581256"><ele>503.0</ele><time>2026-04-21T11:17:24.001Z</time></trkpt><trkpt lat="45.84205761324312" lon="10.168556849394276"><ele>500.0</ele><time>2026-04-21T11:17:25.001Z</time></trkpt><trkpt lat="45.84210627857367" lon="10.168616956856562"><ele>497.0</ele><time>2026-04-21T11:17:26.001Z</time></trkpt><trkpt lat="45.842170046545775" lon="10.168690783337158"><ele>494.0</ele><time>2026-04-21T11:17:27.001Z</time></trkpt><trkpt lat="45.84223475900199" lon="10.168757033701262"><ele>494.0</ele><time>2026-04-21T11:17:28.001Z</time></trkpt><trkpt lat="45.84230678307496" lon="10.168808422194203"><ele>494.0</ele><time>2026-04-21T11:17:29.001Z</time></trkpt><trkpt lat="45.842360584996825" lon="10.168867897946487"><ele>494.0</ele><time>2026-04-21T11:17:30.001Z</time></trkpt><trkpt lat="45.84241936596015" lon="10.168931546066647"><ele>494.0</ele><time>2026-04-21T11:17:31.001Z</time></trkpt><trkpt lat="45.84247975387346" lon="10.168991914931565"><ele>494.0</ele><time>2026-04-21T11:17:32.001Z</time></trkpt><trkpt lat="45.8425428684836" lon="10.169051136640729"><ele>494.0</ele><time>2026-04-21T11:17:33.001Z</time></trkpt><trkpt lat="45.842607137182405" lon="10.169115534464032"><ele>494.0</ele><time>2026-04-21T11:17:34.001Z</time></trkpt><trkpt lat="45.84267402538274" lon="10.169186905885372"><ele>490.99999999999994</ele><time>2026-04-21T11:17:35.001Z</time></trkpt><trkpt lat="45.84273607968095" lon="10.169238819719881"><ele>488.0</ele><time>2026-04-21T11:17:36.001Z</time></trkpt><trkpt lat="45.84281530189273" lon="10.169280811441702"><ele>485.0</ele><time>2026-04-21T11:17:37.001Z</time></trkpt><trkpt lat="45.842877316856146" lon="10.169333009724095"><ele>482.0</ele><time>2026-04-21T11:17:38.001Z</time></trkpt><trkpt lat="45.84295488069102" lon="10.169390892853317"><ele>478.99999999999994</ele><time>2026-04-21T11:17:39.001Z</time></trkpt><trkpt lat="45.84303022829111" lon="10.169464315433157"><ele>476.0</ele><time>2026-04-21T11:17:40.001Z</time></trkpt><trkpt lat="45.84310596787336" lon="10.16955547103837"><ele>475.99999999999994</ele><time>2026-04-21T11:17:41.001Z</time></trkpt><trkpt lat="45.843169400472476" lon="10.16964764131076"><ele>476.0</ele><time>2026-04-21T11:17:42.001Z</time></trkpt><trkpt lat="45.84322527365003" lon="10.16973811418818"><ele>476.0</ele><time>2026-04-21T11:17:43.001Z</time></trkpt><trkpt lat="45.84327424832797" lon="10.169837319854583"><ele>476.0</ele><time>2026-04-21T11:17:44.001Z</time></trkpt><trkpt lat="45.84332112765886" lon="10.16992681036051"><ele>475.99999999999994</ele><time>2026-04-21T11:17:45.001Z</time></trkpt><trkpt lat="45.8433693809431" lon="10.170062084113246"><ele>476.0</ele><time>2026-04-21T11:17:47.001Z</time></trkpt><trkpt lat="45.84347745158158" lon="10.170102412889596"><ele>476.0</ele><time>2026-04-21T11:17:49.001Z</time></trkpt><trkpt lat="45.84352508177934" lon="10.16995946624426"><ele>476.0</ele><time>2026-04-21T11:17:51.001Z</time></trkpt><trkpt lat="45.84344661528568" lon="10.169842333705443"><ele>476.0</ele><time>2026-04-21T11:17:53.001Z</time></trkpt><trkpt lat="45.84339323394888" lon="10.169785116102089"><ele>476.0</ele><time>2026-04-21T11:17:55.001Z</time></trkpt><trkpt lat="45.84337118010338" lon="10.169658721052476"><ele>476.0</ele><time>2026-04-21T11:17:57.001Z</time></trkpt><trkpt lat="45.843320834152586" lon="10.169489162182597"><ele>475.99999999999994</ele><time>2026-04-21T11:17:59.001Z</time></trkpt><trkpt lat="45.843289120250446" lon="10.169377068665792"><ele>476.0</ele><time>2026-04-21T11:18:00.001Z</time></trkpt><trkpt lat="45.84326285830302" lon="10.169280523496132"><ele>476.0</ele><time>2026-04-21T11:18:01.001Z</time></trkpt><trkpt lat="45.84322801972778" lon="10.169161712379362"><ele>476.0</ele><time>2026-04-21T11:18:02.001Z</time></trkpt><trkpt lat="45.84319278777148" lon="10.169051572572535"><ele>475.99999999999994</ele><time>2026-04-21T11:18:03.001Z</time></trkpt><trkpt lat="45.84315371949657" lon="10.168929439925202"><ele>476.0</ele><time>2026-04-21T11:18:04.001Z</time></trkpt><trkpt lat="45.84311773333291" lon="10.168816635027225"><ele>472.8</ele><time>2026-04-21T11:18:05.001Z</time></trkpt><trkpt lat="45.8430761267574" lon="10.16868153984336"><ele>469.6</ele><time>2026-04-21T11:18:06.001Z</time></trkpt><trkpt lat="45.84303913201336" lon="10.16854462099308"><ele>466.4</ele><time>2026-04-21T11:18:07.001Z</time></trkpt><trkpt lat="45.84300833713094" lon="10.168423063919018"><ele>463.2</ele><time>2026-04-21T11:18:08.001Z</time></trkpt><trkpt lat="45.84297692399702" lon="10.168299065506822"><ele>460.0</ele><time>2026-04-21T11:18:09.001Z</time></trkpt><trkpt lat="45.84294605710473" lon="10.16817722425601"><ele>457.2</ele><time>2026-04-21T11:18:10.001Z</time></trkpt><trkpt lat="45.8429162980494" lon="10.168049975462948"><ele>454.4</ele><time>2026-04-21T11:18:11.001Z</time></trkpt><trkpt lat="45.84288462252928" lon="10.167919970313955"><ele>451.6</ele><time>2026-04-21T11:18:12.001Z</time></trkpt><trkpt lat="45.84283083776825" lon="10.167799030838212"><ele>448.8</ele><time>2026-04-21T11:18:13.001Z</time></trkpt><trkpt lat="45.84276878245742" lon="10.16769638988181"><ele>446.0</ele><time>2026-04-21T11:18:14.001Z</time></trkpt><trkpt lat="45.84271008036587" lon="10.167615812960868"><ele>446.0</ele><time>2026-04-21T11:18:15.001Z</time></trkpt><trkpt lat="45.84267084671221" lon="10.16750955660434"><ele>446.0</ele><time>2026-04-21T11:18:17.001Z</time></trkpt><trkpt lat="45.84273607984414" lon="10.167380198042428"><ele>446.0</ele><time>2026-04-21T11:18:19.001Z</time></trkpt><trkpt lat="45.84288632811601" lon="10.16762285882189"><ele>446.0</ele><time>2026-04-21T11:18:23.001Z</time></trkpt><trkpt lat="45.84295624257376" lon="10.16774342423757"><ele>446.0</ele><time>2026-04-21T11:18:25.001Z</time></trkpt><trkpt lat="45.84300814890712" lon="10.167802217411571"><ele>446.0</ele><time>2026-04-21T11:18:26.001Z</time></trkpt><trkpt lat="45.84306752175224" lon="10.16785417892837"><ele>446.0</ele><time>2026-04-21T11:18:27.001Z</time></trkpt><trkpt lat="45.84311289787574" lon="10.16791830830482"><ele>446.0</ele><time>2026-04-21T11:18:28.001Z</time></trkpt><trkpt lat="45.843155467157395" lon="10.167991533883145"><ele>446.0</ele><time>2026-04-21T11:18:29.001Z</time></trkpt><trkpt lat="45.84321615728771" lon="10.168053139070873"><ele>446.0</ele><time>2026-04-21T11:18:30.001Z</time></trkpt><trkpt lat="45.84327060518527" lon="10.168115938807848"><ele>446.0</ele><time>2026-04-21T11:18:31.001Z</time></trkpt><trkpt lat="45.843327416333" lon="10.168177385604789"><ele>448.8</ele><time>2026-04-21T11:18:32.001Z</time></trkpt><trkpt lat="45.843382357082895" lon="10.16823619311314"><ele>451.6</ele><time>2026-04-21T11:18:33.001Z</time></trkpt><trkpt lat="45.84348028677084" lon="10.168353471816111"><ele>454.4</ele><time>2026-04-21T11:18:35.001Z</time></trkpt><trkpt lat="45.84358116248729" lon="10.168501241676296"><ele>457.2</ele><time>2026-04-21T11:18:37.001Z</time></trkpt><trkpt lat="45.843618919314814" lon="10.168587858166052"><ele>460.0</ele><time>2026-04-21T11:18:38.001Z</time></trkpt><trkpt lat="45.84364887669229" lon="10.168679049609603"><ele>452.6</ele><time>2026-04-21T11:18:39.001Z</time></trkpt><trkpt lat="45.84371677032188" lon="10.16880265884491"><ele>445.2</ele><time>2026-04-21T11:18:41.001Z</time></trkpt><trkpt lat="45.843812671090454" lon="10.16888135222184"><ele>437.79999999999995</ele><time>2026-04-21T11:18:43.001Z</time></trkpt><trkpt lat="45.843899348060376" lon="10.168812237327884"><ele>430.4</ele><time>2026-04-21T11:18:44.001Z</time></trkpt><trkpt lat="45.84392021779328" lon="10.168689911302613"><ele>423.0</ele><time>2026-04-21T11:18:45.001Z</time></trkpt><trkpt lat="45.84389550928708" lon="10.168599212809653"><ele>423.0</ele><time>2026-04-21T11:18:46.001Z</time></trkpt><trkpt lat="45.843782607368595" lon="10.168523947825044"><ele>423.0</ele><time>2026-04-21T11:18:47.001Z</time></trkpt><trkpt lat="45.84372835262295" lon="10.168424652524235"><ele>423.0</ele><time>2026-04-21T11:18:48.001Z</time></trkpt><trkpt lat="45.84366363734632" lon="10.168317759418375"><ele>423.0</ele><time>2026-04-21T11:18:49.001Z</time></trkpt><trkpt lat="45.843615716351714" lon="10.168224096516997"><ele>423.0</ele><time>2026-04-21T11:18:50.001Z</time></trkpt><trkpt lat="45.843561176935985" lon="10.168137659110686"><ele>419.0</ele><time>2026-04-21T11:18:51.001Z</time></trkpt><trkpt lat="45.84350760432313" lon="10.168069016142143"><ele>415.0</ele><time>2026-04-21T11:18:52.001Z</time></trkpt><trkpt lat="45.843406688996524" lon="10.167947629242107"><ele>411.0</ele><time>2026-04-21T11:18:54.001Z</time></trkpt><trkpt lat="45.843323531145124" lon="10.167858147872044"><ele>407.0</ele><time>2026-04-21T11:18:56.001Z</time></trkpt><trkpt lat="45.84331548071552" lon="10.167747275101334"><ele>403.0</ele><time>2026-04-21T11:18:58.001Z</time></trkpt><trkpt lat="45.84338956161953" lon="10.167696381447465"><ele>403.00000000000006</ele><time>2026-04-21T11:19:00.001Z</time></trkpt><trkpt lat="45.843447203256375" lon="10.16775180878541"><ele>403.0</ele><time>2026-04-21T11:19:01.001Z</time></trkpt><trkpt lat="45.843481478590796" lon="10.16785986154092"><ele>403.0</ele><time>2026-04-21T11:19:02.001Z</time></trkpt><trkpt lat="45.84355774479777" lon="10.167955395439119"><ele>403.0</ele><time>2026-04-21T11:19:03.001Z</time></trkpt><trkpt lat="45.84361535340213" lon="10.16804693847583"><ele>403.00000000000006</ele><time>2026-04-21T11:19:04.001Z</time></trkpt><trkpt lat="45.84367425563658" lon="10.168135052825555"><ele>403.0</ele><time>2026-04-21T11:19:05.001Z</time></trkpt><trkpt lat="45.84374595871617" lon="10.16823188697751"><ele>406.33333333333337</ele><time>2026-04-21T11:19:06.001Z</time></trkpt><trkpt lat="45.84381162333993" lon="10.168321135432263"><ele>409.6666666666667</ele><time>2026-04-21T11:19:07.001Z</time></trkpt><trkpt lat="45.84387561010446" lon="10.168404622850344"><ele>413.0</ele><time>2026-04-21T11:19:08.001Z</time></trkpt><trkpt lat="45.843942531566874" lon="10.168473814708356"><ele>416.33333333333337</ele><time>2026-04-21T11:19:09.001Z</time></trkpt><trkpt lat="45.84401426680279" lon="10.168527429106772"><ele>419.6666666666667</ele><time>2026-04-21T11:19:10.001Z</time></trkpt><trkpt lat="45.844079005894464" lon="10.168575726969483"><ele>423.0</ele><time>2026-04-21T11:19:11.001Z</time></trkpt><trkpt lat="45.84412956538885" lon="10.168648561809459"><ele>423.0</ele><time>2026-04-21T11:19:12.001Z</time></trkpt><trkpt lat="45.84413167104326" lon="10.168759731543659"><ele>423.0</ele><time>2026-04-21T11:19:13.001Z</time></trkpt><trkpt lat="45.84414335374738" lon="10.168883882686576"><ele>423.0</ele><time>2026-04-21T11:19:14.001Z</time></trkpt><trkpt lat="45.84418050691136" lon="10.168990483404999"><ele>423.0</ele><time>2026-04-21T11:19:15.001Z</time></trkpt><trkpt lat="45.844214196935695" lon="10.169077174942121"><ele>423.0</ele><time>2026-04-21T11:19:16.001Z</time></trkpt><trkpt lat="45.844276763560885" lon="10.169143770833386"><ele>423.0</ele><time>2026-04-21T11:19:17.001Z</time></trkpt><trkpt lat="45.84432909010392" lon="10.169227482633273"><ele>420.1666666666667</ele><time>2026-04-21T11:19:18.001Z</time></trkpt><trkpt lat="45.84438924840451" lon="10.169293379326664"><ele>417.33333333333337</ele><time>2026-04-21T11:19:19.001Z</time></trkpt><trkpt lat="45.844463647944984" lon="10.169341874501642"><ele>414.5</ele><time>2026-04-21T11:19:20.001Z</time></trkpt><trkpt lat="45.84453614423038" lon="10.169381149256951"><ele>411.6666666666667</ele><time>2026-04-21T11:19:21.001Z</time></trkpt><trkpt lat="45.84462908197824" lon="10.169320936709742"><ele>408.83333333333337</ele><time>2026-04-21T11:19:22.001Z</time></trkpt><trkpt lat="45.844739115315924" lon="10.169331306478744"><ele>406.0</ele><time>2026-04-21T11:19:24.001Z</time></trkpt><trkpt lat="45.844821493030096" lon="10.169441657942881"><ele>406.0</ele><time>2026-04-21T11:19:26.001Z</time></trkpt><trkpt lat="45.84484755259785" lon="10.169539080303695"><ele>406.0</ele><time>2026-04-21T11:19:28.001Z</time></trkpt><trkpt lat="45.844856820028966" lon="10.169693998934875"><ele>406.0</ele><time>2026-04-21T11:19:30.001Z</time></trkpt><trkpt lat="45.84481058378698" lon="10.169779301703358"><ele>406.0</ele><time>2026-04-21T11:19:31.001Z</time></trkpt><trkpt lat="45.844770169473996" lon="10.169933501694516"><ele>406.0</ele><time>2026-04-21T11:19:32.001Z</time></trkpt><trkpt lat="45.84481789191437" lon="10.170053289614602"><ele>406.0</ele><time>2026-04-21T11:19:34.001Z</time></trkpt><trkpt lat="45.844931029592374" lon="10.170012222905264"><ele>406.0</ele><time>2026-04-21T11:19:35.001Z</time></trkpt><trkpt lat="45.84497637504596" lon="10.169905375441873"><ele>406.0</ele><time>2026-04-21T11:19:36.001Z</time></trkpt><trkpt lat="45.84500880122743" lon="10.169787449760447"><ele>406.0</ele><time>2026-04-21T11:19:37.001Z</time></trkpt><trkpt lat="45.84502506605909" lon="10.169697088528308"><ele>406.0</ele><time>2026-04-21T11:19:38.001Z</time></trkpt><trkpt lat="45.84503838373596" lon="10.169510881864214"><ele>406.0</ele><time>2026-04-21T11:19:40.001Z</time></trkpt><trkpt lat="45.84502450965993" lon="10.169408154052382"><ele>406.0</ele><time>2026-04-21T11:19:41.001Z</time></trkpt><trkpt lat="45.84496188179314" lon="10.169248704983152"><ele>406.0</ele><time>2026-04-21T11:19:43.001Z</time></trkpt><trkpt lat="45.84490580921767" lon="10.169190189611074"><ele>406.0</ele><time>2026-04-21T11:19:44.001Z</time></trkpt><trkpt lat="45.84487771937881" lon="10.169077382853985"><ele>406.0</ele><time>2026-04-21T11:19:46.001Z</time></trkpt><trkpt lat="45.8449793745097" lon="10.169057830733582"><ele>406.0</ele><time>2026-04-21T11:19:48.001Z</time></trkpt><trkpt lat="45.84503058268652" lon="10.169125945319994"><ele>406.0</ele><time>2026-04-21T11:19:49.001Z</time></trkpt><trkpt lat="45.84509152026603" lon="10.169254505135141"><ele>406.0</ele><time>2026-04-21T11:19:51.001Z</time></trkpt><trkpt lat="45.84514644343929" lon="10.169378383159716"><ele>406.0</ele><time>2026-04-21T11:19:53.001Z</time></trkpt><trkpt lat="45.845143177308294" lon="10.16953166285477"><ele>406.0</ele><time>2026-04-21T11:19:55.001Z</time></trkpt><trkpt lat="45.8451049566216" lon="10.169674891449834"><ele>393.5</ele><time>2026-04-21T11:19:57.001Z</time></trkpt><trkpt lat="45.84513010764046" lon="10.169792949990102"><ele>381.0</ele><time>2026-04-21T11:19:58.001Z</time></trkpt><trkpt lat="45.84519322759939" lon="10.169851691460874"><ele>368.5</ele><time>2026-04-21T11:19:59.001Z</time></trkpt><trkpt lat="45.84529288320895" lon="10.16957875220853"><ele>356.0</ele><time>2026-04-21T11:20:02.001Z</time></trkpt><trkpt lat="45.84530219020486" lon="10.16945355690412"><ele>356.0</ele><time>2026-04-21T11:20:03.001Z</time></trkpt><trkpt lat="45.84529716971867" lon="10.16930991026056"><ele>356.0</ele><time>2026-04-21T11:20:04.001Z</time></trkpt><trkpt lat="45.84529404989939" lon="10.169189231848371"><ele>356.0</ele><time>2026-04-21T11:20:05.001Z</time></trkpt><trkpt lat="45.84527932943421" lon="10.16908553025568"><ele>356.0</ele><time>2026-04-21T11:20:06.001Z</time></trkpt><trkpt lat="45.84525526061658" lon="10.168995338621976"><ele>356.0</ele><time>2026-04-21T11:20:07.001Z</time></trkpt><trkpt lat="45.845212811642895" lon="10.168925402838532"><ele>356.0</ele><time>2026-04-21T11:20:08.001Z</time></trkpt><trkpt lat="45.84514957872782" lon="10.16887311482525"><ele>362.0</ele><time>2026-04-21T11:20:09.001Z</time></trkpt><trkpt lat="45.84507607460501" lon="10.168812397973712"><ele>368.0</ele><time>2026-04-21T11:20:10.001Z</time></trkpt><trkpt lat="45.84502387505129" lon="10.168721338948169"><ele>374.0</ele><time>2026-04-21T11:20:11.001Z</time></trkpt><trkpt lat="45.8449666497795" lon="10.168590982983828"><ele>380.0</ele><time>2026-04-21T11:20:12.001Z</time></trkpt><trkpt lat="45.84488205636453" lon="10.168413403766305"><ele>386.0</ele><time>2026-04-21T11:20:13.001Z</time></trkpt><trkpt lat="45.844807034235764" lon="10.168258921209212"><ele>382.4</ele><time>2026-04-21T11:20:14.001Z</time></trkpt><trkpt lat="45.84475809117833" lon="10.168135912748852"><ele>378.8</ele><time>2026-04-21T11:20:15.001Z</time></trkpt><trkpt lat="45.84475129099586" lon="10.167984308503566"><ele>375.2</ele><time>2026-04-21T11:20:16.001Z</time></trkpt><trkpt lat="45.844717877439585" lon="10.16783985577676"><ele>371.59999999999997</ele><time>2026-04-21T11:20:17.001Z</time></trkpt><trkpt lat="45.84466836047206" lon="10.167683763582618"><ele>368.0</ele><time>2026-04-21T11:20:18.001Z</time></trkpt><trkpt lat="45.844592572209976" lon="10.167533210884788"><ele>368.0</ele><time>2026-04-21T11:20:19.001Z</time></trkpt><trkpt lat="45.844514912959234" lon="10.167396715462802"><ele>368.0</ele><time>2026-04-21T11:20:20.001Z</time></trkpt><trkpt lat="45.844438268267226" lon="10.167264305956948"><ele>368.0</ele><time>2026-04-21T11:20:21.001Z</time></trkpt><trkpt lat="45.84437721347805" lon="10.167140506735308"><ele>368.0</ele><time>2026-04-21T11:20:22.001Z</time></trkpt><trkpt lat="45.84431514890613" lon="10.167028201883598"><ele>368.0</ele><time>2026-04-21T11:20:23.001Z</time></trkpt><trkpt lat="45.844264187562246" lon="10.166929439270532"><ele>367.0</ele><time>2026-04-21T11:20:24.001Z</time></trkpt><trkpt lat="45.84421988522479" lon="10.166837177680643"><ele>366.0</ele><time>2026-04-21T11:20:25.001Z</time></trkpt><trkpt lat="45.84416922841645" lon="10.166754348436271"><ele>365.0</ele><time>2026-04-21T11:20:26.001Z</time></trkpt><trkpt lat="45.844127472751495" lon="10.166679316154074"><ele>364.0</ele><time>2026-04-21T11:20:27.001Z</time></trkpt><trkpt lat="45.84408408424214" lon="10.166609247605262"><ele>363.0</ele><time>2026-04-21T11:20:28.001Z</time></trkpt><trkpt lat="45.84399856965291" lon="10.16648805817447"><ele>362.0</ele><time>2026-04-21T11:20:30.001Z</time></trkpt><trkpt lat="45.84397901701895" lon="10.166362920882108"><ele>362.0</ele><time>2026-04-21T11:20:32.001Z</time></trkpt><trkpt lat="45.84408389018862" lon="10.166322015631271"><ele>362.0</ele><time>2026-04-21T11:20:34.001Z</time></trkpt><trkpt lat="45.84413481746601" lon="10.166384745607884"><ele>362.0</ele><time>2026-04-21T11:20:35.001Z</time></trkpt><trkpt lat="45.84414872272018" lon="10.166503618337135"><ele>362.0</ele><time>2026-04-21T11:20:36.001Z</time></trkpt><trkpt lat="45.84419226011002" lon="10.1665724971831"><ele>362.0</ele><time>2026-04-21T11:20:37.001Z</time></trkpt><trkpt lat="45.84424393235905" lon="10.166639366695101"><ele>362.0</ele><time>2026-04-21T11:20:38.001Z</time></trkpt><trkpt lat="45.84430647102189" lon="10.166704873905484"><ele>360.1666666666667</ele><time>2026-04-21T11:20:39.001Z</time></trkpt><trkpt lat="45.84437011705238" lon="10.166763405258655"><ele>358.33333333333337</ele><time>2026-04-21T11:20:40.001Z</time></trkpt><trkpt lat="45.844440201071286" lon="10.166792853352764"><ele>356.5</ele><time>2026-04-21T11:20:41.001Z</time></trkpt><trkpt lat="45.84452740983276" lon="10.166874566366316"><ele>354.6666666666667</ele><time>2026-04-21T11:20:42.001Z</time></trkpt><trkpt lat="45.84460804596774" lon="10.166952740508824"><ele>352.8333333333333</ele><time>2026-04-21T11:20:43.001Z</time></trkpt><trkpt lat="45.84468693050981" lon="10.167017443156997"><ele>351.0</ele><time>2026-04-21T11:20:44.001Z</time></trkpt><trkpt lat="45.844736750050515" lon="10.167087460446993"><ele>351.0</ele><time>2026-04-21T11:20:45.001Z</time></trkpt><trkpt lat="45.844834903691925" lon="10.167077823089842"><ele>351.0</ele><time>2026-04-21T11:20:47.001Z</time></trkpt><trkpt lat="45.844866412544754" lon="10.166986374072062"><ele>351.0</ele><time>2026-04-21T11:20:48.001Z</time></trkpt><trkpt lat="45.84485447182265" lon="10.166886247422482"><ele>351.0</ele><time>2026-04-21T11:20:49.001Z</time></trkpt><trkpt lat="45.84480453546634" lon="10.166817275591214"><ele>351.0</ele><time>2026-04-21T11:20:50.001Z</time></trkpt><trkpt lat="45.84474386529804" lon="10.166760233753315"><ele>351.0</ele><time>2026-04-21T11:20:51.001Z</time></trkpt><trkpt lat="45.844641713626665" lon="10.16667699145576"><ele>351.0</ele><time>2026-04-21T11:20:53.001Z</time></trkpt><trkpt lat="45.84454548125584" lon="10.166580729313159"><ele>351.0</ele><time>2026-04-21T11:20:55.001Z</time></trkpt><trkpt lat="45.8444889802023" lon="10.166537285144653"><ele>351.0</ele><time>2026-04-21T11:20:56.001Z</time></trkpt><trkpt lat="45.84438344858724" lon="10.166445480748802"><ele>351.0</ele><time>2026-04-21T11:20:58.001Z</time></trkpt><trkpt lat="45.844361024240854" lon="10.166346470806788"><ele>351.0</ele><time>2026-04-21T11:21:00.001Z</time></trkpt><trkpt lat="45.844441143014585" lon="10.166286015218354"><ele>351.0</ele><time>2026-04-21T11:21:02.001Z</time></trkpt><trkpt lat="45.84451953523082" lon="10.166348300322849"><ele>351.0</ele><time>2026-04-21T11:21:03.001Z</time></trkpt><trkpt lat="45.844582924609576" lon="10.16641311026109"><ele>351.0</ele><time>2026-04-21T11:21:05.001Z</time></trkpt><trkpt lat="45.844681349885825" lon="10.166454203235569"><ele>351.0</ele><time>2026-04-21T11:21:07.001Z</time></trkpt><trkpt lat="45.844786992587544" lon="10.166517904116308"><ele>351.0</ele><time>2026-04-21T11:21:09.001Z</time></trkpt><trkpt lat="45.84484684126321" lon="10.166563661833068"><ele>351.0</ele><time>2026-04-21T11:21:10.001Z</time></trkpt><trkpt lat="45.84491652632106" lon="10.166582767187425"><ele>351.0</ele><time>2026-04-21T11:21:11.001Z</time></trkpt><trkpt lat="45.84504783903872" lon="10.166628125210272"><ele>351.0</ele><time>2026-04-21T11:21:13.001Z</time></trkpt><trkpt lat="45.84511009090001" lon="10.16667094999974"><ele>351.0</ele><time>2026-04-21T11:21:14.001Z</time></trkpt><trkpt lat="45.84518298630182" lon="10.166746650969104"><ele>351.0</ele><time>2026-04-21T11:21:15.001Z</time></trkpt><trkpt lat="45.845249581390796" lon="10.16683510390964"><ele>346.8333333333333</ele><time>2026-04-21T11:21:16.001Z</time></trkpt><trkpt lat="45.84531370062427" lon="10.166922031239844"><ele>342.6666666666667</ele><time>2026-04-21T11:21:17.001Z</time></trkpt><trkpt lat="45.84537995752307" lon="10.166995395373313"><ele>338.5</ele><time>2026-04-21T11:21:18.001Z</time></trkpt><trkpt lat="45.84543969757418" lon="10.16707106195551"><ele>334.33333333333337</ele><time>2026-04-21T11:21:19.001Z</time></trkpt><trkpt lat="45.845498122210806" lon="10.167141059268264"><ele>330.1666666666667</ele><time>2026-04-21T11:21:20.001Z</time></trkpt><trkpt lat="45.84554889192859" lon="10.167216969185192"><ele>326.0</ele><time>2026-04-21T11:21:21.001Z</time></trkpt><trkpt lat="45.84562450411656" lon="10.167362121302583"><ele>326.0</ele><time>2026-04-21T11:21:23.001Z</time></trkpt><trkpt lat="45.84565987392828" lon="10.16744897176667"><ele>326.0</ele><time>2026-04-21T11:21:24.001Z</time></trkpt><trkpt lat="45.84567645675583" lon="10.167555147216364"><ele>326.0</ele><time>2026-04-21T11:21:25.001Z</time></trkpt><trkpt lat="45.845705388641385" lon="10.167668969192656"><ele>326.0</ele><time>2026-04-21T11:21:26.001Z</time></trkpt><trkpt lat="45.845752142594584" lon="10.167780746687678"><ele>326.0</ele><time>2026-04-21T11:21:27.001Z</time></trkpt><trkpt lat="45.845782899399204" lon="10.167895968831308"><ele>326.0</ele><time>2026-04-21T11:21:28.001Z</time></trkpt><trkpt lat="45.84581075846326" lon="10.168013679556474"><ele>326.0</ele><time>2026-04-21T11:21:29.001Z</time></trkpt><trkpt lat="45.84584783780869" lon="10.168134546384277"><ele>326.0</ele><time>2026-04-21T11:21:30.001Z</time></trkpt><trkpt lat="45.845889752939165" lon="10.168248215628473"><ele>326.0</ele><time>2026-04-21T11:21:31.001Z</time></trkpt><trkpt lat="45.84593879236042" lon="10.168357186644712"><ele>326.0</ele><time>2026-04-21T11:21:32.001Z</time></trkpt><trkpt lat="45.84599850189725" lon="10.168458256122156"><ele>326.0</ele><time>2026-04-21T11:21:33.001Z</time></trkpt><trkpt lat="45.84604003562488" lon="10.168546725185248"><ele>326.0</ele><time>2026-04-21T11:21:34.001Z</time></trkpt><trkpt lat="45.846097241934245" lon="10.16869135762732"><ele>324.5</ele><time>2026-04-21T11:21:36.001Z</time></trkpt><trkpt lat="45.84620397488538" lon="10.16853915611159"><ele>323.0</ele><time>2026-04-21T11:21:40.001Z</time></trkpt><trkpt lat="45.846140782317555" lon="10.16841631592879"><ele>321.5</ele><time>2026-04-21T11:21:42.001Z</time></trkpt><trkpt lat="45.8460660140444" lon="10.168307177264582"><ele>320.0</ele><time>2026-04-21T11:21:44.001Z</time></trkpt><trkpt lat="45.84602757335289" lon="10.168147268124315"><ele>318.4</ele><time>2026-04-21T11:21:46.001Z</time></trkpt><trkpt lat="45.84600639477933" lon="10.168045080463287"><ele>316.8</ele><time>2026-04-21T11:21:47.001Z</time></trkpt><trkpt lat="45.84598510987188" lon="10.167946922496643"><ele>315.2</ele><time>2026-04-21T11:21:48.001Z</time></trkpt><trkpt lat="45.845986844376526" lon="10.167778687539796"><ele>313.6</ele><time>2026-04-21T11:21:50.001Z</time></trkpt><trkpt lat="45.84605403436185" lon="10.16763899232984"><ele>312.0</ele><time>2026-04-21T11:21:52.001Z</time></trkpt><trkpt lat="45.84612673378066" lon="10.167604725580597"><ele>312.0</ele><time>2026-04-21T11:21:53.001Z</time></trkpt><trkpt lat="45.84621071937116" lon="10.167546656136993"><ele>312.0</ele><time>2026-04-21T11:21:54.001Z</time></trkpt><trkpt lat="45.84629698724681" lon="10.167443080742416"><ele>312.0</ele><time>2026-04-21T11:21:56.001Z</time></trkpt><trkpt lat="45.846314580685224" lon="10.16735183891931"><ele>312.0</ele><time>2026-04-21T11:21:57.001Z</time></trkpt><trkpt lat="45.8463238436345" lon="10.167252123459704"><ele>312.0</ele><time>2026-04-21T11:21:58.001Z</time></trkpt><trkpt lat="45.84629958948792" lon="10.16715369100008"><ele>312.0</ele><time>2026-04-21T11:21:59.001Z</time></trkpt><trkpt lat="45.84634472875194" lon="10.167059025527521"><ele>310.3333333333333</ele><time>2026-04-21T11:22:00.001Z</time></trkpt><trkpt lat="45.8464179988064" lon="10.166992579142205"><ele>308.6666666666667</ele><time>2026-04-21T11:22:01.001Z</time></trkpt><trkpt lat="45.84647261303234" lon="10.166918787958783"><ele>307.0</ele><time>2026-04-21T11:22:02.001Z</time></trkpt><trkpt lat="45.846504013029055" lon="10.16683927493965"><ele>305.33333333333337</ele><time>2026-04-21T11:22:03.001Z</time></trkpt><trkpt lat="45.846498897349875" lon="10.166737326226805"><ele>303.6666666666667</ele><time>2026-04-21T11:22:04.001Z</time></trkpt><trkpt lat="45.84647997231809" lon="10.166611459320839"><ele>302.0</ele><time>2026-04-21T11:22:05.001Z</time></trkpt><trkpt lat="45.84645970988171" lon="10.166461846321562"><ele>300.25</ele><time>2026-04-21T11:22:06.001Z</time></trkpt><trkpt lat="45.846460013363" lon="10.166287457223097"><ele>298.5</ele><time>2026-04-21T11:22:07.001Z</time></trkpt><trkpt lat="45.8464540533868" lon="10.16612787862799"><ele>296.75</ele><time>2026-04-21T11:22:08.001Z</time></trkpt><trkpt lat="45.84644298003774" lon="10.165967690231938"><ele>295.0</ele><time>2026-04-21T11:22:09.001Z</time></trkpt><trkpt lat="45.846460342345225" lon="10.16581115650155"><ele>293.4</ele><time>2026-04-21T11:22:10.001Z</time></trkpt><trkpt lat="45.84646625944199" lon="10.165654935396104"><ele>291.8</ele><time>2026-04-21T11:22:11.001Z</time></trkpt><trkpt lat="45.84646035779033" lon="10.165506780357994"><ele>290.2</ele><time>2026-04-21T11:22:12.001Z</time></trkpt><trkpt lat="45.84643447162043" lon="10.165363916557023"><ele>288.6</ele><time>2026-04-21T11:22:13.001Z</time></trkpt><trkpt lat="45.84639810291329" lon="10.165223876792277"><ele>287.0</ele><time>2026-04-21T11:22:14.001Z</time></trkpt><trkpt lat="45.846383996650026" lon="10.16508089706145"><ele>287.0</ele><time>2026-04-21T11:22:15.001Z</time></trkpt><trkpt lat="45.846383034248085" lon="10.164950634547445"><ele>287.0</ele><time>2026-04-21T11:22:16.001Z</time></trkpt><trkpt lat="45.84643275224788" lon="10.164824932903315"><ele>287.0</ele><time>2026-04-21T11:22:17.001Z</time></trkpt><trkpt lat="45.846494556142424" lon="10.164730974229663"><ele>287.0</ele><time>2026-04-21T11:22:18.001Z</time></trkpt><trkpt lat="45.84655722313411" lon="10.164656294038606"><ele>287.0</ele><time>2026-04-21T11:22:19.001Z</time></trkpt><trkpt lat="45.846625956359425" lon="10.164614078434912"><ele>287.0</ele><time>2026-04-21T11:22:20.001Z</time></trkpt><trkpt lat="45.846697528893294" lon="10.164603060600246"><ele>286.5</ele><time>2026-04-21T11:22:21.001Z</time></trkpt><trkpt lat="45.84676665096156" lon="10.164619040583146"><ele>286.0</ele><time>2026-04-21T11:22:22.001Z</time></trkpt><trkpt lat="45.846834409797246" lon="10.164673095394544"><ele>285.5</ele><time>2026-04-21T11:22:23.001Z</time></trkpt><trkpt lat="45.846913856311915" lon="10.164765825008907"><ele>285.0</ele><time>2026-04-21T11:22:24.001Z</time></trkpt><trkpt lat="45.84698107459434" lon="10.164844795464214"><ele>284.5</ele><time>2026-04-21T11:22:25.001Z</time></trkpt><trkpt lat="45.847047498022526" lon="10.164895417279256"><ele>284.0</ele><time>2026-04-21T11:22:27.001Z</time></trkpt><trkpt lat="45.84716821501358" lon="10.164860716588334"><ele>284.0</ele><time>2026-04-21T11:22:28.001Z</time></trkpt><trkpt lat="45.84706834048546" lon="10.165170853243396"><ele>284.0</ele><time>2026-04-21T11:22:29.001Z</time></trkpt><trkpt lat="45.8470847383557" lon="10.165304659307736"><ele>284.0</ele><time>2026-04-21T11:22:30.001Z</time></trkpt><trkpt lat="45.84710564105231" lon="10.16544484554821"><ele>284.0</ele><time>2026-04-21T11:22:31.001Z</time></trkpt><trkpt lat="45.84712771659195" lon="10.165581091073767"><ele>285.2</ele><time>2026-04-21T11:22:32.001Z</time></trkpt><trkpt lat="45.847146828037374" lon="10.165696518645916"><ele>286.4</ele><time>2026-04-21T11:22:33.001Z</time></trkpt><trkpt lat="45.847155485661226" lon="10.165797075937881"><ele>287.6</ele><time>2026-04-21T11:22:34.001Z</time></trkpt><trkpt lat="45.84718032000054" lon="10.165947126565268"><ele>288.8</ele><time>2026-04-21T11:22:36.001Z</time></trkpt><trkpt lat="45.84722667636904" lon="10.16606488640372"><ele>290.0</ele><time>2026-04-21T11:22:38.001Z</time></trkpt><trkpt lat="45.847167354607656" lon="10.166188332658859"><ele>290.0</ele><time>2026-04-21T11:22:40.001Z</time></trkpt><trkpt lat="45.84718549361536" lon="10.166285417654365"><ele>290.0</ele><time>2026-04-21T11:22:41.001Z</time></trkpt><trkpt lat="45.84724757375141" lon="10.166371776995051"><ele>290.0</ele><time>2026-04-21T11:22:42.001Z</time></trkpt><trkpt lat="45.84728869129229" lon="10.166466715715195"><ele>290.0</ele><time>2026-04-21T11:22:43.001Z</time></trkpt><trkpt lat="45.84732631480749" lon="10.166556565450103"><ele>290.0</ele><time>2026-04-21T11:22:44.001Z</time></trkpt><trkpt lat="45.84738952343299" lon="10.166714569935198"><ele>290.0</ele><time>2026-04-21T11:22:46.001Z</time></trkpt><trkpt lat="45.847402255488234" lon="10.166871726165237"><ele>291.0</ele><time>2026-04-21T11:22:48.001Z</time></trkpt><trkpt lat="45.847367925677844" lon="10.16699148256682"><ele>292.0</ele><time>2026-04-21T11:22:49.001Z</time></trkpt><trkpt lat="45.84731946528804" lon="10.167085578186704"><ele>293.0</ele><time>2026-04-21T11:22:50.001Z</time></trkpt><trkpt lat="45.84733114554023" lon="10.167189682420194"><ele>294.0</ele><time>2026-04-21T11:22:51.001Z</time></trkpt><trkpt lat="45.847398012423554" lon="10.167270770161615"><ele>295.0</ele><time>2026-04-21T11:22:52.001Z</time></trkpt><trkpt lat="45.847479201714" lon="10.167349204285872"><ele>296.0</ele><time>2026-04-21T11:22:53.001Z</time></trkpt><trkpt lat="45.847578061514234" lon="10.167449831449536"><ele>293.0</ele><time>2026-04-21T11:22:54.001Z</time></trkpt><trkpt lat="45.84765704402843" lon="10.167593102550635"><ele>290.0</ele><time>2026-04-21T11:22:55.001Z</time></trkpt><trkpt lat="45.84771149865138" lon="10.167788934619976"><ele>287.0</ele><time>2026-04-21T11:22:56.001Z</time></trkpt><trkpt lat="45.847787055839206" lon="10.16794786275863"><ele>284.0</ele><time>2026-04-21T11:22:57.001Z</time></trkpt><trkpt lat="45.847844085280286" lon="10.16806519432897"><ele>284.0</ele><time>2026-04-21T11:22:58.001Z</time></trkpt><trkpt lat="45.84793060509555" lon="10.168128373388422"><ele>284.0</ele><time>2026-04-21T11:22:59.001Z</time></trkpt><trkpt lat="45.848023760293984" lon="10.168160481007975"><ele>284.0</ele><time>2026-04-21T11:23:00.001Z</time></trkpt><trkpt lat="45.84809981239433" lon="10.168192853435395"><ele>284.0</ele><time>2026-04-21T11:23:01.001Z</time></trkpt><trkpt lat="45.848158806593986" lon="10.168281932805156"><ele>284.0</ele><time>2026-04-21T11:23:02.001Z</time></trkpt><trkpt lat="45.84817199334374" lon="10.168438202006037"><ele>287.2</ele><time>2026-04-21T11:23:03.001Z</time></trkpt><trkpt lat="45.84818566730965" lon="10.168605900366932"><ele>290.4</ele><time>2026-04-21T11:23:04.001Z</time></trkpt><trkpt lat="45.84825662235728" lon="10.168696050551038"><ele>293.6</ele><time>2026-04-21T11:23:05.001Z</time></trkpt><trkpt lat="45.848331541634415" lon="10.168731186186525"><ele>296.8</ele><time>2026-04-21T11:23:06.001Z</time></trkpt><trkpt lat="45.84824501411409" lon="10.168797142979722"><ele>300.0</ele><time>2026-04-21T11:23:09.001Z</time></trkpt><trkpt lat="45.84816110992148" lon="10.168775557168747"><ele>300.0</ele><time>2026-04-21T11:23:10.001Z</time></trkpt><trkpt lat="45.84805210806896" lon="10.168782788665457"><ele>300.0</ele><time>2026-04-21T11:23:12.001Z</time></trkpt><trkpt lat="45.8480410952619" lon="10.168937067037836"><ele>300.0</ele><time>2026-04-21T11:23:14.001Z</time></trkpt><trkpt lat="45.84811582503401" lon="10.169043478961814"><ele>300.0</ele><time>2026-04-21T11:23:16.001Z</time></trkpt><trkpt lat="45.84819259592123" lon="10.169161639898439"><ele>300.0</ele><time>2026-04-21T11:23:18.001Z</time></trkpt><trkpt lat="45.84825393380394" lon="10.169257882004274"><ele>301.0</ele><time>2026-04-21T11:23:20.001Z</time></trkpt><trkpt lat="45.84831232759106" lon="10.169304840672519"><ele>302.0</ele><time>2026-04-21T11:23:23.001Z</time></trkpt><trkpt lat="45.84840439390894" lon="10.169394710029437"><ele>303.0</ele><time>2026-04-21T11:23:25.001Z</time></trkpt><trkpt lat="45.84850840971781" lon="10.169468809847375"><ele>304.0</ele><time>2026-04-21T11:23:27Z</time></trkpt><trkpt lat="45.848591610152425" lon="10.169528763516748"><ele>305.0</ele><time>2026-04-21T11:23:29Z</time></trkpt><trkpt lat="45.848664270152604" lon="10.169583002380206"><ele>305.0</ele><time>2026-04-21T11:23:31Z</time></trkpt><trkpt lat="45.84872863005909" lon="10.169639131218814"><ele>305.0</ele><time>2026-04-21T11:23:33Z</time></trkpt><trkpt lat="45.84877893218221" lon="10.169749504082406"><ele>305.0</ele><time>2026-04-21T11:23:35Z</time></trkpt><trkpt lat="45.84882661710019" lon="10.169891289932595"><ele>305.0</ele><time>2026-04-21T11:23:37Z</time></trkpt><trkpt lat="45.84887098793859" lon="10.17001919180542"><ele>305.0</ele><time>2026-04-21T11:23:39Z</time></trkpt><trkpt lat="45.84892418009658" lon="10.170157604421094"><ele>308.6666666666667</ele><time>2026-04-21T11:23:41.001Z</time></trkpt><trkpt lat="45.84897464639477" lon="10.170264474597298"><ele>312.33333333333337</ele><time>2026-04-21T11:23:43.001Z</time></trkpt><trkpt lat="45.84901213111581" lon="10.170368027459498"><ele>316.0</ele><time>2026-04-21T11:23:46.001Z</time></trkpt><trkpt lat="45.84897287621176" lon="10.170473959303905"><ele>319.6666666666667</ele><time>2026-04-21T11:23:50.001Z</time></trkpt><trkpt lat="45.84889784293042" lon="10.17050392518217"><ele>323.3333333333333</ele><time>2026-04-21T11:23:53.001Z</time></trkpt><trkpt lat="45.84882427500083" lon="10.170524749957801"><ele>327.0</ele><time>2026-04-21T11:23:57.001Z</time></trkpt><trkpt lat="45.84874040455211" lon="10.170502487871952"><ele>327.0</ele><time>2026-04-21T11:24:00.001Z</time></trkpt><trkpt lat="45.84868016918969" lon="10.170529009097395"><ele>327.0</ele><time>2026-04-21T11:24:01.001Z</time></trkpt><trkpt lat="45.84861679520918" lon="10.170552923827719"><ele>327.0</ele><time>2026-04-21T11:24:04.001Z</time></trkpt><trkpt lat="45.84853083325344" lon="10.170529253572008"><ele>327.0</ele><time>2026-04-21T11:24:07.001Z</time></trkpt><trkpt lat="45.848469708067526" lon="10.170553728914314"><ele>327.0</ele><time>2026-04-21T11:24:09.001Z</time></trkpt><trkpt lat="45.84838956773835" lon="10.170520046243015"><ele>327.0</ele><time>2026-04-21T11:24:12.001Z</time></trkpt><trkpt lat="45.848333032462506" lon="10.170436945620002"><ele>327.0</ele><time>2026-04-21T11:24:15.001Z</time></trkpt><trkpt lat="45.848209238888636" lon="10.170401475602388"><ele>330.0</ele><time>2026-04-21T11:24:18.001Z</time></trkpt><trkpt lat="45.84813847684459" lon="10.170376785238052"><ele>333.0</ele><time>2026-04-21T11:24:20.001Z</time></trkpt><trkpt lat="45.84805827812074" lon="10.170289656829427"><ele>336.0</ele><time>2026-04-21T11:24:23.001Z</time></trkpt><trkpt lat="45.84797268216141" lon="10.170256697112801"><ele>339.0</ele><time>2026-04-21T11:24:25.001Z</time></trkpt><trkpt lat="45.84790486639845" lon="10.170280895067474"><ele>342.0</ele><time>2026-04-21T11:24:27.001Z</time></trkpt><trkpt lat="45.84782796420852" lon="10.170263676773239"><ele>345.0</ele><time>2026-04-21T11:24:29.001Z</time></trkpt><trkpt lat="45.84775015797351" lon="10.170241880233243"><ele>345.0</ele><time>2026-04-21T11:24:32.001Z</time></trkpt><trkpt lat="45.84767965476639" lon="10.17023342928619"><ele>345.0</ele><time>2026-04-21T11:24:35.001Z</time></trkpt><trkpt lat="45.847608923574086" lon="10.170190307017453"><ele>345.0</ele><time>2026-04-21T11:24:37.001Z</time></trkpt><trkpt lat="45.8474895332127" lon="10.170150899112302"><ele>345.0</ele><time>2026-04-21T11:24:39.001Z</time></trkpt><trkpt lat="45.84739282940242" lon="10.170127157036847"><ele>345.0</ele><time>2026-04-21T11:24:41.001Z</time></trkpt><trkpt lat="45.84732141160985" lon="10.170138004686638"><ele>345.0</ele><time>2026-04-21T11:24:43.001Z</time></trkpt><trkpt lat="45.84723096236754" lon="10.170189170285616"><ele>349.8</ele><time>2026-04-21T11:24:45.001Z</time></trkpt><trkpt lat="45.847133384337425" lon="10.170224951520137"><ele>354.6</ele><time>2026-04-21T11:24:47.001Z</time></trkpt><trkpt lat="45.84706214716377" lon="10.170259327870363"><ele>359.4</ele><time>2026-04-21T11:24:49.001Z</time></trkpt><trkpt lat="45.84698925642388" lon="10.170371861827109"><ele>364.2</ele><time>2026-04-21T11:24:51.001Z</time></trkpt><trkpt lat="45.84691606898953" lon="10.170496917414322"><ele>369.0</ele><time>2026-04-21T11:24:53.001Z</time></trkpt><trkpt lat="45.84683784209448" lon="10.17062445737801"><ele>369.0</ele><time>2026-04-21T11:24:55Z</time></trkpt><trkpt lat="45.84679003028666" lon="10.170763740174127"><ele>369.0</ele><time>2026-04-21T11:24:57Z</time></trkpt><trkpt lat="45.846716749642" lon="10.170877927686329"><ele>369.0</ele><time>2026-04-21T11:24:59Z</time></trkpt><trkpt lat="45.84666149260429" lon="10.170996467779593"><ele>369.0</ele><time>2026-04-21T11:25:01Z</time></trkpt><trkpt lat="45.84660599640327" lon="10.17112860500861"><ele>369.0</ele><time>2026-04-21T11:25:03Z</time></trkpt><trkpt lat="45.8465395419479" lon="10.171234288057498"><ele>369.0</ele><time>2026-04-21T11:25:05Z</time></trkpt><trkpt lat="45.84649717452244" lon="10.171360428518422"><ele>369.0</ele><time>2026-04-21T11:25:07Z</time></trkpt><trkpt lat="45.84646026304343" lon="10.171451149604735"><ele>369.0</ele><time>2026-04-21T11:25:09Z</time></trkpt><trkpt lat="45.84640981467378" lon="10.171556696247977"><ele>369.0</ele><time>2026-04-21T11:25:11Z</time></trkpt><trkpt lat="45.846411406760964" lon="10.171673776807554"><ele>369.0</ele><time>2026-04-21T11:25:13Z</time></trkpt><trkpt lat="45.846426124134005" lon="10.171803657054413"><ele>369.0</ele><time>2026-04-21T11:25:16Z</time></trkpt><trkpt lat="45.846459321807544" lon="10.17204338317278"><ele>376.6</ele><time>2026-04-21T11:25:18Z</time></trkpt><trkpt lat="45.8464962638239" lon="10.172131438091633"><ele>384.2</ele><time>2026-04-21T11:25:19Z</time></trkpt><trkpt lat="45.84655779301424" lon="10.172270474882273"><ele>391.8</ele><time>2026-04-21T11:25:21Z</time></trkpt><trkpt lat="45.84660824302391" lon="10.172373131680374"><ele>399.40000000000003</ele><time>2026-04-21T11:25:22Z</time></trkpt><trkpt lat="45.846657945609735" lon="10.172505255410993"><ele>407.0</ele><time>2026-04-21T11:25:24Z</time></trkpt><trkpt lat="45.84663467279533" lon="10.172615606920441"><ele>409.16666666666663</ele><time>2026-04-21T11:25:28Z</time></trkpt><trkpt lat="45.84663263502422" lon="10.172715803610577"><ele>411.3333333333333</ele><time>2026-04-21T11:25:30Z</time></trkpt><trkpt lat="45.84665841396172" lon="10.17282347343453"><ele>413.5</ele><time>2026-04-21T11:25:32Z</time></trkpt><trkpt lat="45.846705243371865" lon="10.172931128024834"><ele>415.66666666666663</ele><time>2026-04-21T11:25:34Z</time></trkpt><trkpt lat="45.84676097504785" lon="10.172973834150316"><ele>417.8333333333333</ele><time>2026-04-21T11:25:36Z</time></trkpt><trkpt lat="45.84678873590742" lon="10.172865747800893"><ele>420.0</ele><time>2026-04-21T11:25:38Z</time></trkpt><trkpt lat="45.846862754280146" lon="10.172812455058011"><ele>425.0</ele><time>2026-04-21T11:25:40Z</time></trkpt><trkpt lat="45.8469799249805" lon="10.172815527862875"><ele>430.0</ele><time>2026-04-21T11:25:43Z</time></trkpt><trkpt lat="45.84704937757728" lon="10.172727742304223"><ele>435.0</ele><time>2026-04-21T11:25:44Z</time></trkpt><trkpt lat="45.84715214994078" lon="10.172670134000207"><ele>440.0</ele><time>2026-04-21T11:25:45.001Z</time></trkpt><trkpt lat="45.84727127915148" lon="10.172626547020151"><ele>445.0</ele><time>2026-04-21T11:25:46.001Z</time></trkpt><trkpt lat="45.84735627889002" lon="10.172622192459292"><ele>445.0</ele><time>2026-04-21T11:25:47.001Z</time></trkpt><trkpt lat="45.84744829572276" lon="10.172622643600757"><ele>445.0</ele><time>2026-04-21T11:25:48.001Z</time></trkpt><trkpt lat="45.84754743665988" lon="10.172624065506275"><ele>445.0</ele><time>2026-04-21T11:25:49.001Z</time></trkpt><trkpt lat="45.847654826023934" lon="10.172635133048601"><ele>445.0</ele><time>2026-04-21T11:25:50.001Z</time></trkpt><trkpt lat="45.847736041049686" lon="10.172629202991146"><ele>445.0</ele><time>2026-04-21T11:25:51.001Z</time></trkpt><trkpt lat="45.84781054007099" lon="10.17268346480436"><ele>445.0</ele><time>2026-04-21T11:25:53.001Z</time></trkpt><trkpt lat="45.8477550939153" lon="10.172815028877864"><ele>445.0</ele><time>2026-04-21T11:25:55.001Z</time></trkpt><trkpt lat="45.847618175206534" lon="10.172969714183644"><ele>445.0</ele><time>2026-04-21T11:25:57.001Z</time></trkpt><trkpt lat="45.847525964327254" lon="10.173096866604908"><ele>445.0</ele><time>2026-04-21T11:25:58Z</time></trkpt><trkpt lat="45.8474514166498" lon="10.173226179664622"><ele>447.83333333333337</ele><time>2026-04-21T11:25:59Z</time></trkpt><trkpt lat="45.84739409720407" lon="10.173343488797524"><ele>450.6666666666667</ele><time>2026-04-21T11:26:00Z</time></trkpt><trkpt lat="45.84734843786966" lon="10.173444953770948"><ele>453.5</ele><time>2026-04-21T11:26:01Z</time></trkpt><trkpt lat="45.8474001756488" lon="10.173583257959727"><ele>456.33333333333337</ele><time>2026-04-21T11:26:04Z</time></trkpt><trkpt lat="45.84741525221512" lon="10.173682291368694"><ele>459.1666666666667</ele><time>2026-04-21T11:26:05Z</time></trkpt><trkpt lat="45.847418797833676" lon="10.173795471131456"><ele>462.0</ele><time>2026-04-21T11:26:06Z</time></trkpt><trkpt lat="45.84742116080655" lon="10.173890334945677"><ele>463.8</ele><time>2026-04-21T11:26:07Z</time></trkpt><trkpt lat="45.847431385419235" lon="10.174047990349967"><ele>465.6</ele><time>2026-04-21T11:26:09Z</time></trkpt><trkpt lat="45.847414113498836" lon="10.174136644256691"><ele>467.40000000000003</ele><time>2026-04-21T11:26:10Z</time></trkpt><trkpt lat="45.84744038876729" lon="10.174228691381773"><ele>469.20000000000005</ele><time>2026-04-21T11:26:11Z</time></trkpt><trkpt lat="45.84748088867649" lon="10.17432249001206"><ele>471.0</ele><time>2026-04-21T11:26:12Z</time></trkpt><trkpt lat="45.84767692959832" lon="10.174642477619678"><ele>476.6</ele><time>2026-04-21T11:26:13Z</time></trkpt><trkpt lat="45.847736472451075" lon="10.174765182467176"><ele>482.20000000000005</ele><time>2026-04-21T11:26:14Z</time></trkpt><trkpt lat="45.84784026139328" lon="10.174848401199233"><ele>487.79999999999995</ele><time>2026-04-21T11:26:16Z</time></trkpt><trkpt lat="45.84793254807234" lon="10.174952173417054"><ele>493.4</ele><time>2026-04-21T11:26:17Z</time></trkpt><trkpt lat="45.84800802796506" lon="10.175043706928616"><ele>499.0</ele><time>2026-04-21T11:26:18Z</time></trkpt><trkpt lat="45.84805718644439" lon="10.175139703307666"><ele>500.79999999999995</ele><time>2026-04-21T11:26:19Z</time></trkpt><trkpt lat="45.84809555888538" lon="10.175244078029865"><ele>502.59999999999997</ele><time>2026-04-21T11:26:21Z</time></trkpt><trkpt lat="45.84812337775001" lon="10.175355030518705"><ele>504.4</ele><time>2026-04-21T11:26:22Z</time></trkpt><trkpt lat="45.8481609981481" lon="10.17550713223936"><ele>506.2</ele><time>2026-04-21T11:26:23Z</time></trkpt><trkpt lat="45.848200281411174" lon="10.175658001731588"><ele>508.0</ele><time>2026-04-21T11:26:24Z</time></trkpt><trkpt lat="45.848221494896634" lon="10.175813682743874"><ele>508.6666666666667</ele><time>2026-04-21T11:26:25Z</time></trkpt><trkpt lat="45.84827388488606" lon="10.175922374644678"><ele>509.33333333333337</ele><time>2026-04-21T11:26:27Z</time></trkpt><trkpt lat="45.84850564642657" lon="10.175818721163747"><ele>510.0</ele><time>2026-04-21T11:26:34Z</time></trkpt><trkpt lat="45.848447776557784" lon="10.175981500256572"><ele>515.75</ele><time>2026-04-21T11:26:35Z</time></trkpt><trkpt lat="45.848542886476764" lon="10.176058617541697"><ele>521.5</ele><time>2026-04-21T11:26:37Z</time></trkpt><trkpt lat="45.84878671762366" lon="10.176105951966228"><ele>527.25</ele><time>2026-04-21T11:26:44Z</time></trkpt><trkpt lat="45.84887124608498" lon="10.176050163342202"><ele>533.0</ele><time>2026-04-21T11:26:48Z</time></trkpt><trkpt lat="45.848940782499994" lon="10.176002308414951"><ele>533.0</ele><time>2026-04-21T11:26:50Z</time></trkpt><trkpt lat="45.84908683115079" lon="10.175921100301373"><ele>533.0</ele><time>2026-04-21T11:26:55Z</time></trkpt><trkpt lat="45.84912372709386" lon="10.175835184778276"><ele>533.0</ele><time>2026-04-21T11:26:56Z</time></trkpt><trkpt lat="45.849133245086236" lon="10.175715398445838"><ele>533.0</ele><time>2026-04-21T11:26:57Z</time></trkpt><trkpt lat="45.849138496764894" lon="10.175615209719757"><ele>533.0</ele><time>2026-04-21T11:26:58Z</time></trkpt><trkpt lat="45.84912137632555" lon="10.175503207568429"><ele>531.4</ele><time>2026-04-21T11:26:59Z</time></trkpt><trkpt lat="45.84907970712275" lon="10.175402682520474"><ele>529.8</ele><time>2026-04-21T11:27:00Z</time></trkpt><trkpt lat="45.84901685961697" lon="10.175334127974311"><ele>528.2</ele><time>2026-04-21T11:27:01Z</time></trkpt><trkpt lat="45.848942041688055" lon="10.175256605807268"><ele>526.6</ele><time>2026-04-21T11:27:02Z</time></trkpt><trkpt lat="45.84886462727146" lon="10.175109556066095"><ele>525.0</ele><time>2026-04-21T11:27:03Z</time></trkpt><trkpt lat="45.84881737763322" lon="10.175000624616782"><ele>525.0</ele><time>2026-04-21T11:27:04Z</time></trkpt><trkpt lat="45.84879215226927" lon="10.174901479129739"><ele>525.0</ele><time>2026-04-21T11:27:05Z</time></trkpt><trkpt lat="45.8488271622986" lon="10.17474397610968"><ele>525.0</ele><time>2026-04-21T11:27:07Z</time></trkpt><trkpt lat="45.84889156653986" lon="10.174606204912552"><ele>525.0</ele><time>2026-04-21T11:27:09Z</time></trkpt><trkpt lat="45.848963709827814" lon="10.174510734691143"><ele>525.0</ele><time>2026-04-21T11:27:11Z</time></trkpt><trkpt lat="45.849022423459786" lon="10.174473908780033"><ele>522.5</ele><time>2026-04-21T11:27:13Z</time></trkpt><trkpt lat="45.84898921910373" lon="10.17439346321905"><ele>520.0</ele><time>2026-04-21T11:27:23Z</time></trkpt><trkpt lat="45.848900375268805" lon="10.174365662277873"><ele>517.5</ele><time>2026-04-21T11:27:26Z</time></trkpt><trkpt lat="45.848803658799746" lon="10.174386010527376"><ele>515.0</ele><time>2026-04-21T11:27:29Z</time></trkpt><trkpt lat="45.8487367620675" lon="10.174420651415511"><ele>512.5</ele><time>2026-04-21T11:27:34Z</time></trkpt><trkpt lat="45.84867473264858" lon="10.174461437868095"><ele>510.0</ele><time>2026-04-21T11:27:53Z</time></trkpt><trkpt lat="45.848653358788326" lon="10.17455422489232"><ele>510.0</ele><time>2026-04-21T11:28:01Z</time></trkpt></trkseg></trk></gpx>